Home > Products > Valid Products > TAF

000
FTUS43 KLOT 070529
TAFDPA
TAF
KDPA 070529Z 0706/0806 14005KT 5SM BR SCT250
     FM071400 18012G20KT P6SM FEW040
     FM071700 19016G25KT P6SM SCT050
     FM080100 20011KT P6SM BKN250=



000
FTUS43 KLOT 070529
TAFMDW
TAF
KMDW 070529Z 0706/0806 08004KT 6SM HZ FEW090 SCT250
     FM070800 14005KT 6SM BR SCT250
     FM071400 19012G20KT P6SM FEW040
     FM071700 20016G24KT P6SM SCT050
     FM080100 20011KT P6SM BKN250=



000
FTUS43 KLOT 070529
TAFORD
TAF
KORD 070529Z 0706/0812 07004KT 6SM HZ FEW090 SCT250
     FM070800 14005KT 6SM BR SCT250
     FM071400 19012G20KT P6SM FEW040
     FM071700 20016G24KT P6SM SCT050
     FM080100 20011KT P6SM BKN250=



000
FTUS43 KLOT 070529
TAFRFD
TAF
KRFD 070529Z 0706/0806 16008KT 5SM HZ SCT250
     FM071400 18014G22KT P6SM SCT040
     FM071700 19018G28KT P6SM BKN050
     FM080100 20011KT P6SM BKN250=



000
FTUS43 KLOT 070529
TAFGYY
TAF
KGYY 070529Z 0706/0806 VRB03KT 6SM HZ FEW090 SCT250
     FM070800 14005KT 6SM BR SCT250
     FM071400 19012G19KT P6SM FEW040
     FM071700 20016G24KT P6SM SCT050
     FM080100 20011KT P6SM BKN250=



000
FTUS43 KLOT 070529
TAFGYY
TAF
KGYY 070529Z 0706/0806 VRB03KT 6SM HZ FEW090 SCT250
     FM070800 14005KT 6SM BR SCT250
     FM071400 19012G19KT P6SM FEW040
     FM071700 20016G24KT P6SM SCT050
     FM080100 20011KT P6SM BKN250=



000
FTUS43 KLOT 070304 AAB
TAFORD
TAF AMD
KORD 070304Z 0703/0806 07005KT 6SM HZ FEW090 SCT250
     FM070700 14005KT 6SM BR SCT250
     FM071400 19012G19KT P6SM FEW040
     FM071700 20016G24KT P6SM SCT050
     FM080100 19011KT P6SM BKN250=



000
FTUS43 KLOT 070304 AAA
TAFRFD
TAF AMD
KRFD 070304Z 0703/0724 11008KT 6SM HZ FEW090 SCT250
     FM070800 16008KT 6SM BR FEW090 SCT250
     FM071400 18014G22KT P6SM SCT040
     FM071700 19018G28KT P6SM BKN050=



000
FTUS43 KLOT 070304 AAA
TAFDPA
TAF AMD
KDPA 070304Z 0703/0724 12005KT 6SM HZ FEW090 SCT250
     FM070700 14006KT 5SM BR SCT250
     FM071400 18012G19KT P6SM FEW040
     FM071700 19016G24KT P6SM SCT050=



000
FTUS43 KLOT 070304 AAB
TAFORD
TAF AMD
KORD 070304Z 0703/0806 07005KT 6SM HZ FEW090 SCT250
     FM070700 14005KT 6SM BR SCT250
     FM071400 19012G19KT P6SM FEW040
     FM071700 20016G24KT P6SM SCT050
     FM080100 19011KT P6SM BKN250=



000
FTUS43 KLOT 070304 AAB
TAFMDW
TAF AMD
KMDW 070304Z 0703/0724 08005KT 6SM HZ FEW090 SCT250
     FM070700 14005KT 6SM BR SCT250
     FM071400 19012G19KT P6SM FEW040
     FM071700 20016G24KT P6SM SCT050=



000
FTUS43 KLOT 070304 AAB
TAFGYY
TAF AMD
KGYY 070304Z 0703/0724 VRB03KT 6SM HZ FEW090 SCT250
     FM070700 14005KT 6SM BR SCT250
     FM071400 19012G19KT P6SM FEW040
     FM071700 20016G24KT P6SM SCT050=



000
FTUS43 KLOT 070304 AAB
TAFGYY
TAF AMD
KGYY 070304Z 0703/0724 VRB03KT 6SM HZ FEW090 SCT250
     FM070700 14005KT 6SM BR SCT250
     FM071400 19012G19KT P6SM FEW040
     FM071700 20016G24KT P6SM SCT050=



000
FTUS43 KLOT 070304 AAA
TAFRFD
TAF AMD
KRFD 070304Z 0703/0724 11008KT 6SM HZ FEW090 SCT250
     FM070800 16008KT 6SM BR FEW090 SCT250
     FM071400 18014G22KT P6SM SCT040
     FM071700 19018G28KT P6SM BKN050=



000
FTUS43 KLOT 070304 AAA
TAFDPA
TAF AMD
KDPA 070304Z 0703/0724 12005KT 6SM HZ FEW090 SCT250
     FM070700 14006KT 5SM BR SCT250
     FM071400 18012G19KT P6SM FEW040
     FM071700 19016G24KT P6SM SCT050=



000
FTUS43 KLOT 070304 AAB
TAFMDW
TAF AMD
KMDW 070304Z 0703/0724 08005KT 6SM HZ FEW090 SCT250
     FM070700 14005KT 6SM BR SCT250
     FM071400 19012G19KT P6SM FEW040
     FM071700 20016G24KT P6SM SCT050=



000
FTUS43 KLOT 070304 AAB
TAFGYY
TAF AMD
KGYY 070304Z 0703/0724 VRB03KT 6SM HZ FEW090 SCT250
     FM070700 14005KT 6SM BR SCT250
     FM071400 19012G19KT P6SM FEW040
     FM071700 20016G24KT P6SM SCT050=



000
FTUS43 KLOT 070125 AAA
TAFGYY
TAF AMD
KGYY 070125Z 0701/0724 VRB06KT 6SM HZ SCT250
     FM070300 12006KT 3SM HZ FEW004 SCT250
     FM070700 16005KT 6SM BR SCT250
     FM071400 19012G19KT P6SM FEW040
     FM071700 20016G24KT P6SM SCT050=



000
FTUS43 KLOT 070125 AAA
TAFGYY
TAF AMD
KGYY 070125Z 0701/0724 VRB06KT 6SM HZ SCT250
     FM070300 12006KT 3SM HZ FEW004 SCT250
     FM070700 16005KT 6SM BR SCT250
     FM071400 19012G19KT P6SM FEW040
     FM071700 20016G24KT P6SM SCT050=



000
FTUS43 KLOT 070124 AAA
TAFMDW
TAF AMD
KMDW 070124Z 0701/0724 08007KT 6SM HZ SCT250
     FM070400 13006KT 4SM HZ FEW004 SCT250
     FM070700 17006KT 6SM BR SCT250
     FM071400 19012G19KT P6SM FEW040
     FM071700 20016G24KT P6SM SCT050=



000
FTUS43 KLOT 070123 AAA
TAFORD
TAF AMD
KORD 070123Z 0701/0806 07007KT 6SM HZ SCT250
     FM070400 13006KT 4SM HZ FEW004 SCT250
     FM070700 17006KT 6SM BR SCT250
     FM071400 19012G19KT P6SM FEW040
     FM071700 20016G24KT P6SM SCT050
     FM080100 19011KT P6SM BKN250=



000
FTUS43 KLOT 062320
TAFMDW
TAF
KMDW 062320Z 0700/0724 08008KT 6SM HZ FEW080 SCT250
     FM070100 13006KT 4SM HZ FEW004 SCT250
     FM070700 17006KT 6SM BR SCT250
     FM071400 19012G19KT P6SM FEW040
     FM071700 20016G24KT P6SM SCT050=



000
FTUS43 KLOT 062320
TAFORD
TAF
KORD 062320Z 0700/0806 08008KT 6SM HZ FEW080 SCT250
     FM070100 13006KT 4SM HZ FEW004 SCT250
     FM070700 17006KT 6SM BR SCT250
     FM071400 19012G19KT P6SM FEW040
     FM071700 20016G24KT P6SM SCT050
     FM080100 19011KT P6SM BKN250=



000
FTUS43 KLOT 062320
TAFGYY
TAF
KGYY 062320Z 0700/0724 06006KT 5SM HZ FEW080 SCT250
     FM070100 12006KT 3SM HZ FEW004 SCT250
     FM070700 16005KT 6SM BR SCT250
     FM071400 19012G19KT P6SM FEW040
     FM071700 20016G24KT P6SM SCT050=



000
FTUS43 KLOT 062320
TAFGYY
TAF
KGYY 062320Z 0700/0724 06006KT 5SM HZ FEW080 SCT250
     FM070100 12006KT 3SM HZ FEW004 SCT250
     FM070700 16005KT 6SM BR SCT250
     FM071400 19012G19KT P6SM FEW040
     FM071700 20016G24KT P6SM SCT050=



000
FTUS43 KLOT 062320
TAFDPA
TAF
KDPA 062320Z 0700/0724 09008KT 6SM HZ FEW080 SCT250
     FM070100 13005KT 4SM HZ SCT250
     FM070700 17006KT 5SM BR SCT250
     FM071400 18012G19KT P6SM FEW040
     FM071700 19016G24KT P6SM SCT050=



000
FTUS43 KLOT 062320
TAFRFD
TAF
KRFD 062320Z 0700/0724 16009KT P6SM SCT070 BKN250
     FM070700 17007KT 6SM BR SCT250
     FM071400 18014G22KT P6SM SCT040
     FM071700 19018G28KT P6SM BKN050=



000
FTUS43 KLOT 062200 AAC
TAFGYY
TAF AMD
KGYY 062200Z 0622/0718 05008KT 5SM HZ SCT080
     FM070100 15006KT 4SM BR FEW004 SCT050
     FM070500 18005KT P6SM SCT180
     FM071500 19012G20KT P6SM SCT050=



000
FTUS43 KLOT 062200 AAB
TAFDPA
TAF AMD
KDPA 062200Z 0622/0718 08009KT P6SM SCT080
     FM070100 12005KT 5SM HZ FEW004 SCT050
     FM070600 18005KT P6SM SCT180
     FM071500 18014G22KT P6SM SCT050 SCT180=



000
FTUS43 KLOT 062200 AAC
TAFGYY
TAF AMD
KGYY 062200Z 0622/0718 05008KT 5SM HZ SCT080
     FM070100 15006KT 4SM BR FEW004 SCT050
     FM070500 18005KT P6SM SCT180
     FM071500 19012G20KT P6SM SCT050=



000
FTUS43 KLOT 062200 AAC
TAFORD
TAF AMD
KORD 062200Z 0622/0724 06009KT 6SM HZ SCT080
     FM070100 13005KT 5SM HZ FEW050 SCT180
     FM070600 18005KT P6SM SCT180
     FM071500 19013G21KT P6SM SCT050=



000
FTUS43 KLOT 062200 AAC
TAFMDW
TAF AMD
KMDW 062200Z 0622/0718 06009KT 5SM HZ SCT080
     FM070100 13005KT 5SM HZ FEW004 SCT050
     FM070500 18005KT P6SM SCT180
     FM071500 19013G21KT P6SM SCT050=



000
FTUS43 KLOT 062200 AAC
TAFRFD
TAF AMD
KRFD 062200Z 0622/0718 16012KT P6SM SCT070 BKN250
     FM070100 14007KT 5SM HZ FEW050 SCT180
     FM071500 19015G25KT P6SM SCT050 SCT180=



000
FTUS43 KLOT 062200 AAC
TAFRFD
TAF AMD
KRFD 062200Z 0622/0718 16012KT P6SM SCT070 BKN250
     FM070100 14007KT 5SM HZ FEW050 SCT180
     FM071500 19015G25KT P6SM SCT050 SCT180=



000
FTUS43 KLOT 062200 AAB
TAFDPA
TAF AMD
KDPA 062200Z 0622/0718 08009KT P6SM SCT080
     FM070100 12005KT 5SM HZ FEW004 SCT050
     FM070600 18005KT P6SM SCT180
     FM071500 18014G22KT P6SM SCT050 SCT180=



000
FTUS43 KLOT 062200 AAC
TAFGYY
TAF AMD
KGYY 062200Z 0622/0718 05008KT 5SM HZ SCT080
     FM070100 15006KT 4SM BR FEW004 SCT050
     FM070500 18005KT P6SM SCT180
     FM071500 19012G20KT P6SM SCT050=



000
FTUS43 KLOT 062200 AAC
TAFMDW
TAF AMD
KMDW 062200Z 0622/0718 06009KT 5SM HZ SCT080
     FM070100 13005KT 5SM HZ FEW004 SCT050
     FM070500 18005KT P6SM SCT180
     FM071500 19013G21KT P6SM SCT050=



000
FTUS43 KLOT 062200 AAC
TAFORD
TAF AMD
KORD 062200Z 0622/0724 06009KT 6SM HZ SCT080
     FM070100 13005KT 5SM HZ FEW050 SCT180
     FM070600 18005KT P6SM SCT180
     FM071500 19013G21KT P6SM SCT050=



000
FTUS43 KLOT 062108 AAB
TAFGYY
TAF AMD
KGYY 062108Z 0621/0718 03008KT 5SM HZ SCT070
     FM070100 15006KT 4SM BR FEW004 SCT050
     FM070500 18005KT P6SM SCT180
     FM071500 19012G20KT P6SM SCT050=



000
FTUS43 KLOT 062108 AAB
TAFGYY
TAF AMD
KGYY 062108Z 0621/0718 03008KT 5SM HZ SCT070
     FM070100 15006KT 4SM BR FEW004 SCT050
     FM070500 18005KT P6SM SCT180
     FM071500 19012G20KT P6SM SCT050=



000
FTUS43 KLOT 062107 AAB
TAFMDW
TAF AMD
KMDW 062107Z 0621/0718 06009KT 5SM HZ SCT050 BKN080
     FM070100 13005KT 5SM HZ FEW004 SCT050
     FM070500 18005KT P6SM SCT180
     FM071500 19013G21KT P6SM SCT050=



000
FTUS43 KLOT 062105 AAB
TAFORD
TAF AMD
KORD 062105Z 0621/0724 06009KT 6SM HZ FEW050 SCT250
     FM070100 13005KT 5SM HZ FEW050 SCT180
     FM070600 18005KT P6SM SCT180
     FM071500 19013G21KT P6SM SCT050=



000
FTUS43 KLOT 061952 AAA
TAFGYY
TAF AMD
KGYY 061952Z 0620/0718 15005KT P6SM FEW050
     FM070100 15006KT 4SM BR FEW004 SCT050
     FM070500 18005KT P6SM SCT180
     FM071500 19012G20KT P6SM SCT050=



000
FTUS43 KLOT 061952 AAA
TAFORD
TAF AMD
KORD 061952Z 0620/0724 06009KT P6SM SCT250
     FM062100 06007KT P6SM SCT050 SCT250
     FM070100 13005KT 5SM HZ FEW050 SCT180
     FM070600 18005KT P6SM SCT180
     FM071500 19013G21KT P6SM SCT050=



000
FTUS43 KLOT 061952 AAA
TAFDPA
TAF AMD
KDPA 061952Z 0620/0718 VRB04KT P6SM FEW050
     FM062100 08009KT P6SM SCT050
     FM070100 12005KT 5SM HZ FEW004 SCT050
     FM070600 18005KT P6SM SCT180
     FM071500 18014G22KT P6SM SCT050 SCT180=



000
FTUS43 KLOT 061952 AAB
TAFRFD
TAF AMD
KRFD 061952Z 0620/0718 13010KT P6SM SCT080 BKN250
     FM070100 14007KT 5SM HZ FEW050 SCT180
     FM071500 19015G25KT P6SM SCT050 SCT180=



000
FTUS43 KLOT 061952 AAA
TAFMDW
TAF AMD
KMDW 061952Z 0620/0718 06009KT 5SM HZ SCT050 BKN080
     FM062100 06007KT P6SM SCT050 SCT250
     FM070100 13005KT 5SM HZ FEW004 SCT050
     FM070500 18005KT P6SM SCT180
     FM071500 19013G21KT P6SM SCT050=



000
FTUS43 KLOT 061952 AAA
TAFGYY
TAF AMD
KGYY 061952Z 0620/0718 15005KT P6SM FEW050
     FM070100 15006KT 4SM BR FEW004 SCT050
     FM070500 18005KT P6SM SCT180
     FM071500 19012G20KT P6SM SCT050=



000
FTUS43 KLOT 061833 AAA
TAFRFD
TAF AMD
KRFD 061833Z 0619/0718 13010KT P6SM SCT080
     FM070100 14007KT 5SM HZ FEW050 SCT180
     FM071500 19015G25KT P6SM SCT050 SCT180=



000
FTUS43 KLOT 061833 AAA
TAFRFD
TAF AMD
KRFD 061833Z 0619/0718 13010KT P6SM SCT080
     FM070100 14007KT 5SM HZ FEW050 SCT180
     FM071500 19015G25KT P6SM SCT050 SCT180=



000
FTUS43 KLOT 061729
TAFORD
TAF
KORD 061729Z 0618/0724 13007KT P6SM SCT080
     FM062000 08007KT P6SM FEW050
     FM070100 13005KT 5SM HZ FEW050 SCT180
     FM070600 18005KT P6SM SCT180
     FM071500 19013G21KT P6SM SCT050=



000
FTUS43 KLOT 061729
TAFGYY
TAF
KGYY 061729Z 0618/0718 15007KT P6SM SCT080
     FM062000 03007KT P6SM FEW050
     FM070100 15006KT 4SM BR FEW004 SCT050
     FM070500 18005KT P6SM SCT180
     FM071500 19012G20KT P6SM SCT050=



000
FTUS43 KLOT 061729
TAFMDW
TAF
KMDW 061729Z 0618/0718 13007KT P6SM SCT080
     FM062000 08007KT P6SM FEW050
     FM070100 13005KT 5SM HZ FEW004 SCT050
     FM070500 18005KT P6SM SCT180
     FM071500 19013G21KT P6SM SCT050=



000
FTUS43 KLOT 061729
TAFRFD
TAF
KRFD 061729Z 0618/0718 16012KT P6SM SCT080
     FM070100 14007KT 5SM HZ FEW050 SCT180
     FM071500 19015G25KT P6SM SCT050 SCT180=



000
FTUS43 KLOT 061729
TAFDPA
TAF
KDPA 061729Z 0618/0718 14007KT P6SM SCT080
     FM062100 08007KT P6SM FEW050
     FM070100 12005KT 5SM HZ FEW004 SCT050
     FM070600 18005KT P6SM SCT180
     FM071500 18014G22KT P6SM SCT050 SCT180=



000
FTUS43 KLOT 061729
TAFGYY
TAF
KGYY 061729Z 0618/0718 15007KT P6SM SCT080
     FM062000 03007KT P6SM FEW050
     FM070100 15006KT 4SM BR FEW004 SCT050
     FM070500 18005KT P6SM SCT180
     FM071500 19012G20KT P6SM SCT050=



000
FTUS43 KLOT 061729
TAFRFD
TAF
KRFD 061729Z 0618/0718 16012KT P6SM SCT080
     FM070100 14007KT 5SM HZ FEW050 SCT180
     FM071500 19015G25KT P6SM SCT050 SCT180=



000
FTUS43 KLOT 061729
TAFMDW
TAF
KMDW 061729Z 0618/0718 13007KT P6SM SCT080
     FM062000 08007KT P6SM FEW050
     FM070100 13005KT 5SM HZ FEW004 SCT050
     FM070500 18005KT P6SM SCT180
     FM071500 19013G21KT P6SM SCT050=



000
FTUS43 KLOT 061729
TAFDPA
TAF
KDPA 061729Z 0618/0718 14007KT P6SM SCT080
     FM062100 08007KT P6SM FEW050
     FM070100 12005KT 5SM HZ FEW004 SCT050
     FM070600 18005KT P6SM SCT180
     FM071500 18014G22KT P6SM SCT050 SCT180=



000
FTUS43 KLOT 061729
TAFORD
TAF
KORD 061729Z 0618/0724 13007KT P6SM SCT080
     FM062000 08007KT P6SM FEW050
     FM070100 13005KT 5SM HZ FEW050 SCT180
     FM070600 18005KT P6SM SCT180
     FM071500 19013G21KT P6SM SCT050=



000
FTUS43 KLOT 061729
TAFGYY
TAF
KGYY 061729Z 0618/0718 15007KT P6SM SCT080
     FM062000 03007KT P6SM FEW050
     FM070100 15006KT 4SM BR FEW004 SCT050
     FM070500 18005KT P6SM SCT180
     FM071500 19012G20KT P6SM SCT050=



000
FTUS43 KLOT 061729
TAFGYY
TAF
KGYY 061729Z 0618/0718 15007KT P6SM SCT080
     FM062000 03007KT P6SM FEW050
     FM070100 15006KT 4SM BR FEW004 SCT050
     FM070500 18005KT P6SM SCT180
     FM071500 19012G20KT P6SM SCT050=



000
FTUS43 KLOT 061621 AAC
TAFGYY
TAF AMD
KGYY 061621Z 0616/0712 15006KT 4SM BR SCT050 SCT100
     FM061800 04006KT P6SM BKN050
     FM070300 15006KT 3SM BR FEW004 SCT050=



000
FTUS43 KLOT 061621 AAC
TAFGYY
TAF AMD
KGYY 061621Z 0616/0712 15006KT 4SM BR SCT050 SCT100
     FM061800 04006KT P6SM BKN050
     FM070300 15006KT 3SM BR FEW004 SCT050=



000
FTUS43 KLOT 061621 AAC
TAFORD
TAF AMD
KORD 061621Z 0616/0718 14004KT 4SM BR SCT050 BKN100
     FM061800 11005KT P6SM SCT020 BKN050
     FM070300 13005KT 6SM HZ FEW004 SCT050
     FM071500 19013KT P6SM SCT050=



000
FTUS43 KLOT 061621 AAC
TAFDPA
TAF AMD
KDPA 061621Z 0616/0712 VRB03KT 5SM BR SCT050 SCT100
     FM061800 17010KT P6SM BKN050
     FM070100 12005KT 3SM BR FEW004 SCT050=



000
FTUS43 KLOT 061621 AAC
TAFMDW
TAF AMD
KMDW 061621Z 0616/0712 15004KT 6SM HZ SCT050 BKN100
     FM061700 12005KT P6SM SCT020 BKN050
     FM062000 10008KT P6SM BKN050
     FM070300 13005KT 6SM HZ FEW004 SCT050=



000
FTUS43 KLOT 061621 AAD
TAFRFD
TAF AMD
KRFD 061621Z 0616/0712 13008KT 5SM BR SCT060 BKN120
     FM061800 16012KT P6SM BKN050
     FM070300 14007KT 4SM BR FEW004 SCT050=



000
FTUS43 KLOT 061621 AAC
TAFDPA
TAF AMD
KDPA 061621Z 0616/0712 VRB03KT 5SM BR SCT050 SCT100
     FM061800 17010KT P6SM BKN050
     FM070100 12005KT 3SM BR FEW004 SCT050=



000
FTUS43 KLOT 061621 AAD
TAFRFD
TAF AMD
KRFD 061621Z 0616/0712 13008KT 5SM BR SCT060 BKN120
     FM061800 16012KT P6SM BKN050
     FM070300 14007KT 4SM BR FEW004 SCT050=



000
FTUS43 KLOT 061621 AAC
TAFORD
TAF AMD
KORD 061621Z 0616/0718 14004KT 4SM BR SCT050 BKN100
     FM061800 11005KT P6SM SCT020 BKN050
     FM070300 13005KT 6SM HZ FEW004 SCT050
     FM071500 19013KT P6SM SCT050=



000
FTUS43 KLOT 061621 AAC
TAFGYY
TAF AMD
KGYY 061621Z 0616/0712 15006KT 4SM BR SCT050 SCT100
     FM061800 04006KT P6SM BKN050
     FM070300 15006KT 3SM BR FEW004 SCT050=



000
FTUS43 KLOT 061621 AAC
TAFMDW
TAF AMD
KMDW 061621Z 0616/0712 15004KT 6SM HZ SCT050 BKN100
     FM061700 12005KT P6SM SCT020 BKN050
     FM062000 10008KT P6SM BKN050
     FM070300 13005KT 6SM HZ FEW004 SCT050=



000
FTUS43 KLOT 061532 CCA
TAFMDW
TAF COR
KMDW 061532Z 0615/0712 13004KT 2SM BR SCT009 BKN100
     FM061600 12005KT 4SM BR SCT050 BKN100
     FM061700 12005KT P6SM SCT020 BKN050
     FM062000 10008KT P6SM BKN050
     FM070300 13005KT 6SM HZ FEW004 SCT050=



000
FTUS43 KLOT 061523 AAB
TAFGYY
TAF AMD
KGYY 061523Z 0615/0712 18007KT 3SM BR BKN120
     FM061600 09006KT 4SM BR SCT020 BKN050
     FM061800 04006KT P6SM BKN050
     FM070300 15006KT 3SM BR FEW004 SCT050=



000
FTUS43 KLOT 061523 AAB
TAFGYY
TAF AMD
KGYY 061523Z 0615/0712 18007KT 3SM BR BKN120
     FM061600 09006KT 4SM BR SCT020 BKN050
     FM061800 04006KT P6SM BKN050
     FM070300 15006KT 3SM BR FEW004 SCT050=



000
FTUS43 KLOT 061523 AAB
TAFGYY
TAF AMD
KGYY 061523Z 0615/0712 18007KT 3SM BR BKN120
     FM061600 09006KT 4SM BR SCT020 BKN050
     FM061800 04006KT P6SM BKN050
     FM070300 15006KT 3SM BR FEW004 SCT050=



000
FTUS43 KLOT 061523 AAB
TAFDPA
TAF AMD
KDPA 061523Z 0615/0712 14004KT 4SM BR FEW005 OVC120
     FM061600 15005KT 5SM BR SCT020 BKN050
     FM061800 17010KT P6SM BKN050
     FM070100 12005KT 3SM BR FEW004 SCT050=



000
FTUS43 KLOT 061523 AAB
TAFORD
TAF AMD
KORD 061523Z 0615/0718 16005KT 3SM BR SCT005 BKN120
     FM061600 09004KT 4SM BR SCT050 BKN100
     FM061800 11005KT P6SM SCT020 BKN050
     FM070300 13005KT 6SM HZ FEW004 SCT050
     FM071500 19013KT P6SM SCT050=



000
FTUS43 KLOT 061523 AAC
TAFRFD
TAF AMD
KRFD 061523Z 0615/0712 13005KT 3SM BR OVC005
     FM061600 16006KT 5SM BR SCT005 SCT020 BKN040
     FM061900 16012KT P6SM BKN050
     FM070300 14007KT 4SM BR FEW004 SCT050=



000
FTUS43 KLOT 061523 AAB
TAFMDW
TAF AMD
KMDW 061523Z 0615/0712 13004KT 2SM BR FEW005 BKN009 BKN100
     FM061600 12005KT 4SM BR SCT050 BKN100
     FM061700 12005KT P6SM SCT020 BKN050
     FM062000 10008KT P6SM BKN050
     FM070300 13005KT 6SM HZ FEW004 SCT050=



000
FTUS43 KLOT 061359 AAB
TAFRFD
TAF AMD
KRFD 061359Z 0614/0712 12005KT 1SM BR OVC002
      TEMPO 0614/0616 3/4SM BR
     FM061600 16006KT 3SM BR SCT004 SCT020 BKN040
     FM061900 16012KT P6SM BKN050
     FM070300 14007KT 4SM BR FEW004 SCT050=



000
FTUS43 KLOT 061359 AAA
TAFDPA
TAF AMD
KDPA 061359Z 0614/0712 10005KT 3/4SM BR OVC002
      TEMPO 0614/0616 1/4SM FG
     FM061600 15005KT 4SM BR SCT020 BKN050
     FM061800 17010KT P6SM BKN050
     FM070100 12005KT 3SM BR FEW004 SCT050=



000
FTUS43 KLOT 061359 AAA
TAFMDW
TAF AMD
KMDW 061359Z 0614/0712 11004KT 3/4SM BR OVC002
      TEMPO 0614/0615 1/4SM FG
     FM061530 12005KT 4SM BR OVC007
     FM061700 12005KT P6SM SCT020 BKN050
     FM062000 10008KT P6SM BKN050
     FM070300 13005KT 6SM HZ FEW004 SCT050=



000
FTUS43 KLOT 061359 AAA
TAFGYY
TAF AMD
KGYY 061359Z 0614/0712 VRB03KT 1 1/2SM BR OVC002
      TEMPO 0614/0616 3/4SM BR
     FM061600 09006KT 4SM BR SCT020 BKN050
     FM061800 04006KT P6SM BKN050
     FM070300 15006KT 3SM BR FEW004 SCT050=



000
FTUS43 KLOT 061359 AAA
TAFGYY
TAF AMD
KGYY 061359Z 0614/0712 VRB03KT 1 1/2SM BR OVC002
      TEMPO 0614/0616 3/4SM BR
     FM061600 09006KT 4SM BR SCT020 BKN050
     FM061800 04006KT P6SM BKN050
     FM070300 15006KT 3SM BR FEW004 SCT050=



000
FTUS43 KLOT 061359 AAA
TAFORD
TAF AMD
KORD 061359Z 0614/0718 06004KT 3/4SM BR OVC002
      TEMPO 0614/0616 1/4SM FG
     FM061600 09004KT 4SM BR OVC007
     FM061800 11005KT P6SM SCT020 BKN050
     FM070300 13005KT 6SM HZ FEW004 SCT050
     FM071500 19013KT P6SM SCT050=



000
FTUS43 KLOT 061359 AAB
TAFRFD
TAF AMD
KRFD 061359Z 0614/0712 12005KT 1SM BR OVC002
      TEMPO 0614/0616 3/4SM BR
     FM061600 16006KT 3SM BR SCT004 SCT020 BKN040
     FM061900 16012KT P6SM BKN050
     FM070300 14007KT 4SM BR FEW004 SCT050=



000
FTUS43 KLOT 061359 AAA
TAFDPA
TAF AMD
KDPA 061359Z 0614/0712 10005KT 3/4SM BR OVC002
      TEMPO 0614/0616 1/4SM FG
     FM061600 15005KT 4SM BR SCT020 BKN050
     FM061800 17010KT P6SM BKN050
     FM070100 12005KT 3SM BR FEW004 SCT050=



000
FTUS43 KLOT 061359 AAA
TAFGYY
TAF AMD
KGYY 061359Z 0614/0712 VRB03KT 1 1/2SM BR OVC002
      TEMPO 0614/0616 3/4SM BR
     FM061600 09006KT 4SM BR SCT020 BKN050
     FM061800 04006KT P6SM BKN050
     FM070300 15006KT 3SM BR FEW004 SCT050=



000
FTUS43 KLOT 061359 AAA
TAFORD
TAF AMD
KORD 061359Z 0614/0718 06004KT 3/4SM BR OVC002
      TEMPO 0614/0616 1/4SM FG
     FM061600 09004KT 4SM BR OVC007
     FM061800 11005KT P6SM SCT020 BKN050
     FM070300 13005KT 6SM HZ FEW004 SCT050
     FM071500 19013KT P6SM SCT050=



000
FTUS43 KLOT 061359 AAA
TAFMDW
TAF AMD
KMDW 061359Z 0614/0712 11004KT 3/4SM BR OVC002
      TEMPO 0614/0615 1/4SM FG
     FM061530 12005KT 4SM BR OVC007
     FM061700 12005KT P6SM SCT020 BKN050
     FM062000 10008KT P6SM BKN050
     FM070300 13005KT 6SM HZ FEW004 SCT050=



000
FTUS43 KLOT 061359 AAA
TAFGYY
TAF AMD
KGYY 061359Z 0614/0712 VRB03KT 1 1/2SM BR OVC002
      TEMPO 0614/0616 3/4SM BR
     FM061600 09006KT 4SM BR SCT020 BKN050
     FM061800 04006KT P6SM BKN050
     FM070300 15006KT 3SM BR FEW004 SCT050=



000
FTUS43 KLOT 061246 AAA
TAFRFD
TAF AMD
KRFD 061246Z 0613/0712 11006KT 1/2SM FG OVC002
      TEMPO 0613/0616 1/4SM FG
     FM061600 16006KT 3SM BR SCT004 SCT020 BKN040
     FM061900 16012KT P6SM BKN050
     FM070300 14007KT 4SM BR FEW004 SCT050=



000
FTUS43 KLOT 061246 AAA
TAFRFD
TAF AMD
KRFD 061246Z 0613/0712 11006KT 1/2SM FG OVC002
      TEMPO 0613/0616 1/4SM FG
     FM061600 16006KT 3SM BR SCT004 SCT020 BKN040
     FM061900 16012KT P6SM BKN050
     FM070300 14007KT 4SM BR FEW004 SCT050=



000
FTUS43 KLOT 061128
TAFORD
TAF
KORD 061128Z 0612/0718 09006KT 1SM BR OVC002
      TEMPO 0612/0614 1/4SM FG
     FM061500 09004KT 4SM BR OVC007
     FM061700 11005KT P6SM SCT020 BKN050
     FM061900 10008KT P6SM BKN050
     FM070300 13005KT 6SM HZ FEW004 SCT050
     FM071500 19013KT P6SM SCT050=



000
FTUS43 KLOT 061128
TAFGYY
TAF
KGYY 061128Z 0612/0712 VRB04KT 1/2SM FG OVC002
      TEMPO 0612/0614 1/4SM FG
     FM061500 09006KT 4SM BR SCT020 BKN050
     FM061700 04006KT P6SM BKN050
     FM070300 15006KT 3SM BR FEW004 SCT050=



000
FTUS43 KLOT 061128
TAFRFD
TAF
KRFD 061128Z 0612/0712 11006KT 1/2SM FG OVC002
     FM061600 16006KT 4SM BR SCT004 SCT020 BKN040
     FM061900 16012KT P6SM BKN050
     FM070300 14007KT 4SM BR FEW004 SCT050=



000
FTUS43 KLOT 061128
TAFGYY
TAF
KGYY 061128Z 0612/0712 VRB04KT 1/2SM FG OVC002
      TEMPO 0612/0614 1/4SM FG
     FM061500 09006KT 4SM BR SCT020 BKN050
     FM061700 04006KT P6SM BKN050
     FM070300 15006KT 3SM BR FEW004 SCT050=



000
FTUS43 KLOT 061128
TAFMDW
TAF
KMDW 061128Z 0612/0712 08006KT 1SM BR OVC003
      TEMPO 0612/0614 1/4SM FG
     FM061500 12005KT 4SM BR OVC007
     FM061700 12005KT P6SM SCT020 BKN050
     FM062000 10008KT P6SM BKN050
     FM070300 13005KT 6SM HZ FEW004 SCT050=



000
FTUS43 KLOT 061128
TAFDPA
TAF
KDPA 061128Z 0612/0712 08005KT 1SM BR OVC002
      TEMPO 0612/0614 1/4SM FG
     FM061500 15005KT 5SM BR SCT020 BKN050
     FM061700 17010KT P6SM BKN050
     FM070100 12005KT 3SM BR FEW004 SCT050=



000
FTUS43 KLOT 061055 AAB
TAFMDW
TAF AMD
KMDW 061055Z 0611/0706 08006KT 1SM BR OVC003
      TEMPO 0612/0614 1/4SM FG
     FM061500 12005KT 4SM BR OVC007
     FM061700 12005KT P6SM SCT020 BKN050
     FM062000 10008KT P6SM BKN050
     FM070300 13005KT 6SM HZ FEW004 SCT050=



000
FTUS43 KLOT 061055 AAB
TAFORD
TAF AMD
KORD 061055Z 0611/0712 09006KT 1SM BR OVC002
      TEMPO 0612/0614 1/4SM FG
     FM061500 09004KT 4SM BR OVC007
     FM061700 11005KT P6SM SCT020 BKN050
     FM061900 10008KT P6SM BKN050
     FM070300 13005KT 6SM HZ FEW004 SCT050=



000
FTUS43 KLOT 061055 AAB
TAFMDW
TAF AMD
KMDW 061055Z 0611/0706 08006KT 1SM BR OVC003
      TEMPO 0612/0614 1/4SM FG
     FM061500 12005KT 4SM BR OVC007
     FM061700 12005KT P6SM SCT020 BKN050
     FM062000 10008KT P6SM BKN050
     FM070300 13005KT 6SM HZ FEW004 SCT050=



000
FTUS43 KLOT 061055 AAB
TAFORD
TAF AMD
KORD 061055Z 0611/0712 09006KT 1SM BR OVC002
      TEMPO 0612/0614 1/4SM FG
     FM061500 09004KT 4SM BR OVC007
     FM061700 11005KT P6SM SCT020 BKN050
     FM061900 10008KT P6SM BKN050
     FM070300 13005KT 6SM HZ FEW004 SCT050=



000
FTUS43 KLOT 060859 AAA
TAFRFD
TAF AMD
KRFD 060859Z 0609/0706 08006KT 1/2SM FG OVC002
     FM061500 17006KT P6SM SCT004 SCT020 BKN040
     FM061900 19012KT P6SM BKN045
     FM070300 13007KT 4SM BR FEW004 SCT050=



000
FTUS43 KLOT 060859 AAA
TAFDPA
TAF AMD
KDPA 060859Z 0609/0706 06006KT 1/2SM FG OVC002
     FM061500 15005KT 5SM BR SCT020 BKN040
     FM061700 17010KT P6SM BKN050
     FM070100 12005KT 3SM BR FEW004 SCT050=



000
FTUS43 KLOT 060859 AAA
TAFMDW
TAF AMD
KMDW 060859Z 0609/0706 03006KT 1SM BR OVC003
     FM061400 12005KT 4SM BR OVC007
     FM061600 16005KT P6SM SCT020 BKN040
     FM062000 10008KT P6SM BKN050
     FM070300 12005KT 6SM HZ FEW004 SCT050=



000
FTUS43 KLOT 060859 AAA
TAFGYY
TAF AMD
KGYY 060859Z 0609/0706 VRB04KT 1/2SM FG OVC002
     FM061400 09006KT 4SM BR SCT020 BKN040
     FM061700 04006KT P6SM BKN050
     FM070300 15006KT 3SM BR FEW004 SCT050=



000
FTUS43 KLOT 060859 AAA
TAFGYY
TAF AMD
KGYY 060859Z 0609/0706 VRB04KT 1/2SM FG OVC002
     FM061400 09006KT 4SM BR SCT020 BKN040
     FM061700 04006KT P6SM BKN050
     FM070300 15006KT 3SM BR FEW004 SCT050=



000
FTUS43 KLOT 060859 AAA
TAFORD
TAF AMD
KORD 060859Z 0609/0712 03006KT 1SM BR OVC002
     FM061400 09004KT 4SM BR OVC007
     FM061600 11005KT P6SM SCT020 BKN040
     FM061900 10008KT P6SM BKN050
     FM070300 12005KT 6SM HZ FEW004 SCT050=



000
FTUS43 KLOT 060859 AAA
TAFGYY
TAF AMD
KGYY 060859Z 0609/0706 VRB04KT 1/2SM FG OVC002
     FM061400 09006KT 4SM BR SCT020 BKN040
     FM061700 04006KT P6SM BKN050
     FM070300 15006KT 3SM BR FEW004 SCT050=



000
FTUS43 KLOT 060859 AAA
TAFORD
TAF AMD
KORD 060859Z 0609/0712 03006KT 1SM BR OVC002
     FM061400 09004KT 4SM BR OVC007
     FM061600 11005KT P6SM SCT020 BKN040
     FM061900 10008KT P6SM BKN050
     FM070300 12005KT 6SM HZ FEW004 SCT050=



000
FTUS43 KLOT 060859 AAA
TAFRFD
TAF AMD
KRFD 060859Z 0609/0706 08006KT 1/2SM FG OVC002
     FM061500 17006KT P6SM SCT004 SCT020 BKN040
     FM061900 19012KT P6SM BKN045
     FM070300 13007KT 4SM BR FEW004 SCT050=



000
FTUS43 KLOT 060859 AAA
TAFDPA
TAF AMD
KDPA 060859Z 0609/0706 06006KT 1/2SM FG OVC002
     FM061500 15005KT 5SM BR SCT020 BKN040
     FM061700 17010KT P6SM BKN050
     FM070100 12005KT 3SM BR FEW004 SCT050=



000
FTUS43 KLOT 060859 AAA
TAFGYY
TAF AMD
KGYY 060859Z 0609/0706 VRB04KT 1/2SM FG OVC002
     FM061400 09006KT 4SM BR SCT020 BKN040
     FM061700 04006KT P6SM BKN050
     FM070300 15006KT 3SM BR FEW004 SCT050=



000
FTUS43 KLOT 060859 AAA
TAFMDW
TAF AMD
KMDW 060859Z 0609/0706 03006KT 1SM BR OVC003
     FM061400 12005KT 4SM BR OVC007
     FM061600 16005KT P6SM SCT020 BKN040
     FM062000 10008KT P6SM BKN050
     FM070300 12005KT 6SM HZ FEW004 SCT050=



000
FTUS43 KLOT 060525
TAFGYY
TAF
KGYY 060525Z 0606/0706 VRB04KT 1SM BR OVC002
     FM061300 16006KT P6SM SCT020 BKN040
     FM061800 04006KT P6SM BKN050
     FM070300 15006KT 3SM BR FEW004 SCT050=



000
FTUS43 KLOT 060525
TAFGYY
TAF
KGYY 060525Z 0606/0706 VRB04KT 1SM BR OVC002
     FM061300 16006KT P6SM SCT020 BKN040
     FM061800 04006KT P6SM BKN050
     FM070300 15006KT 3SM BR FEW004 SCT050=



000
FTUS43 KLOT 060525
TAFMDW
TAF
KMDW 060525Z 0606/0706 03006KT 2SM BR OVC005
     FM061300 14005KT 4SM BR OVC007
     FM061600 16005KT P6SM SCT020 BKN040
     FM062000 10008KT P6SM BKN050
     FM070300 12005KT 6SM HZ FEW004 SCT050=



000
FTUS43 KLOT 060525
TAFGYY
TAF
KGYY 060525Z 0606/0706 VRB04KT 1SM BR OVC002
     FM061300 16006KT P6SM SCT020 BKN040
     FM061800 04006KT P6SM BKN050
     FM070300 15006KT 3SM BR FEW004 SCT050=



000
FTUS43 KLOT 060525
TAFORD
TAF
KORD 060525Z 0606/0712 03006KT 3SM BR OVC002
     FM061300 VRB04KT 4SM BR OVC007
     FM061600 11005KT P6SM SCT020 BKN040
     FM061900 10008KT P6SM BKN050
     FM070300 12005KT 6SM HZ FEW004 SCT050=



000
FTUS43 KLOT 060525
TAFRFD
TAF
KRFD 060525Z 0606/0706 08006KT 4SM BR OVC004
     FM061500 17006KT P6SM SCT004 SCT020 BKN040
     FM061900 19012KT P6SM BKN045
     FM070300 13007KT 4SM BR FEW004 SCT050=



000
FTUS43 KLOT 060525
TAFDPA
TAF
KDPA 060525Z 0606/0706 06006KT 1/2SM FG OVC002
     FM061500 15005KT 5SM BR SCT020 BKN040
     FM061700 17010KT P6SM BKN050
     FM070100 09008KT 3SM BR FEW004 SCT050=



000
FTUS43 KLOT 060525
TAFGYY
TAF
KGYY 060525Z 0606/0706 VRB04KT 1SM BR OVC002
     FM061300 16006KT P6SM SCT020 BKN040
     FM061800 04006KT P6SM BKN050
     FM070300 15006KT 3SM BR FEW004 SCT050=



000
FTUS43 KLOT 060525
TAFDPA
TAF
KDPA 060525Z 0606/0706 06006KT 1/2SM FG OVC002
     FM061500 15005KT 5SM BR SCT020 BKN040
     FM061700 17010KT P6SM BKN050
     FM070100 09008KT 3SM BR FEW004 SCT050=



000
FTUS43 KLOT 060525
TAFRFD
TAF
KRFD 060525Z 0606/0706 08006KT 4SM BR OVC004
     FM061500 17006KT P6SM SCT004 SCT020 BKN040
     FM061900 19012KT P6SM BKN045
     FM070300 13007KT 4SM BR FEW004 SCT050=



000
FTUS43 KLOT 060525
TAFORD
TAF
KORD 060525Z 0606/0712 03006KT 3SM BR OVC002
     FM061300 VRB04KT 4SM BR OVC007
     FM061600 11005KT P6SM SCT020 BKN040
     FM061900 10008KT P6SM BKN050
     FM070300 12005KT 6SM HZ FEW004 SCT050=



000
FTUS43 KLOT 060525
TAFMDW
TAF
KMDW 060525Z 0606/0706 03006KT 2SM BR OVC005
     FM061300 14005KT 4SM BR OVC007
     FM061600 16005KT P6SM SCT020 BKN040
     FM062000 10008KT P6SM BKN050
     FM070300 12005KT 6SM HZ FEW004 SCT050=



000
FTUS43 KLOT 060359 AAC
TAFRFD
TAF AMD
KRFD 060359Z 0604/0624 08006KT 4SM BR OVC005
     FM061500 17006KT P6SM SCT020 BKN040
     FM061900 19012KT P6SM BKN045=



000
FTUS43 KLOT 060243 CCA
TAFDPA
TAF COR
KDPA 060243Z 0603/0624 04007KT 1 1/2SM BR OVC004
      TEMPO 0603/0606 1/2SM FG OVC002
     FM060600 VRB04KT 1/2SM FG OVC002
     FM061500 17005KT 5SM BR SCT020 BKN040
     FM061700 16009KT P6SM BKN050=



000
FTUS43 KLOT 060240 AAB
TAFORD
TAF AMD
KORD 060240Z 0603/0706 04006KT 4SM BR OVC005
      TEMPO 0603/0606 1SM BR OVC003
     FM060600 06005KT 1/2SM FG OVC002
     FM061300 VRB04KT 4SM BR OVC007
     FM061600 16005KT P6SM SCT020 BKN040
     FM061900 10008KT P6SM BKN050
     FM070300 12005KT 6SM HZ FEW004 SCT050=



000
FTUS43 KLOT 060240 AAB
TAFMDW
TAF AMD
KMDW 060240Z 0603/0624 02006KT 6SM HZ SCT006 BKN250
      TEMPO 0603/0606 3SM BR BKN006
     FM060600 07004KT 1/2SM FG OVC002
     FM061300 11005KT 4SM BR OVC007
     FM061500 16005KT P6SM SCT020 BKN040
     FM062000 10008KT P6SM BKN050=



000
FTUS43 KLOT 060240 AAB
TAFDPA
TAF AMD
KDPA 060240Z 0603/0624 04007KT 1 1/4SM BR OVC004
      TEMPO 0603/0606 1/2SM FG OVC002
     FM060600 VRB04KT 1/2SM FG OVC002
     FM061500 17005KT 5SM BR SCT020 BKN040
     FM061700 16009KT P6SM BKN050=



000
FTUS43 KLOT 060240 AAB
TAFRFD
TAF AMD
KRFD 060240Z 0603/0624 08007KT P6SM OVC007
     FM060500 09006KT 4SM BR OVC005
     FM061500 17006KT P6SM SCT020 BKN040
     FM061900 19012KT P6SM BKN045=



000
FTUS43 KLOT 060240 AAB
TAFORD
TAF AMD
KORD 060240Z 0603/0706 04006KT 4SM BR OVC005
      TEMPO 0603/0606 1SM BR OVC003
     FM060600 06005KT 1/2SM FG OVC002
     FM061300 VRB04KT 4SM BR OVC007
     FM061600 16005KT P6SM SCT020 BKN040
     FM061900 10008KT P6SM BKN050
     FM070300 12005KT 6SM HZ FEW004 SCT050=



000
FTUS43 KLOT 060240 AAB
TAFRFD
TAF AMD
KRFD 060240Z 0603/0624 08007KT P6SM OVC007
     FM060500 09006KT 4SM BR OVC005
     FM061500 17006KT P6SM SCT020 BKN040
     FM061900 19012KT P6SM BKN045=



000
FTUS43 KLOT 060240 AAB
TAFDPA
TAF AMD
KDPA 060240Z 0603/0624 04007KT 1 1/4SM BR OVC004
      TEMPO 0603/0606 1/2SM FG OVC002
     FM060600 VRB04KT 1/2SM FG OVC002
     FM061500 17005KT 5SM BR SCT020 BKN040
     FM061700 16009KT P6SM BKN050=



000
FTUS43 KLOT 060240 AAB
TAFGYY
TAF AMD
KGYY 060240Z 0603/0624 VRB04KT 1SM BR OVC002
     FM061300 16006KT P6SM SCT020 BKN040
     FM061700 18009KT P6SM BKN050=



000
FTUS43 KLOT 060240 AAB
TAFGYY
TAF AMD
KGYY 060240Z 0603/0624 VRB04KT 1SM BR OVC002
     FM061300 16006KT P6SM SCT020 BKN040
     FM061700 18009KT P6SM BKN050=



000
FTUS43 KLOT 060240 AAB
TAFMDW
TAF AMD
KMDW 060240Z 0603/0624 02006KT 6SM HZ SCT006 BKN250
      TEMPO 0603/0606 3SM BR BKN006
     FM060600 07004KT 1/2SM FG OVC002
     FM061300 11005KT 4SM BR OVC007
     FM061500 16005KT P6SM SCT020 BKN040
     FM062000 10008KT P6SM BKN050=



000
FTUS43 KLOT 060240 AAB
TAFGYY
TAF AMD
KGYY 060240Z 0603/0624 VRB04KT 1SM BR OVC002
     FM061300 16006KT P6SM SCT020 BKN040
     FM061700 18009KT P6SM BKN050=



000
FTUS43 KLOT 060115 AAA
TAFMDW
TAF AMD
KMDW 060115Z 0601/0624 03006KT 6SM BR OVC006
     FM060300 05006KT 2SM BR OVC004
     FM060600 09004KT 1/2SM FG OVC002
     FM061300 11005KT 4SM BR OVC007
     FM061500 16005KT P6SM SCT020 BKN040
     FM062000 10008KT P6SM BKN050=



000
FTUS43 KLOT 060115 AAA
TAFRFD
TAF AMD
KRFD 060115Z 0601/0624 08007KT P6SM OVC008
     FM060400 09006KT 4SM BR OVC005
     FM061500 17006KT P6SM SCT020 BKN040
     FM061900 19012KT P6SM BKN045=



000
FTUS43 KLOT 060115 AAA
TAFDPA
TAF AMD
KDPA 060115Z 0601/0624 06007KT 4SM BR OVC005
     FM060300 04007KT 3SM BR OVC004
     FM060600 VRB04KT 1/2SM FG OVC002
     FM061500 17005KT 5SM BR SCT020 BKN040
     FM061700 16009KT P6SM BKN050=



000
FTUS43 KLOT 060115 AAA
TAFRFD
TAF AMD
KRFD 060115Z 0601/0624 08007KT P6SM OVC008
     FM060400 09006KT 4SM BR OVC005
     FM061500 17006KT P6SM SCT020 BKN040
     FM061900 19012KT P6SM BKN045=



000
FTUS43 KLOT 060115 AAA
TAFGYY
TAF AMD
KGYY 060115Z 0601/0624 VRB03KT 2SM BR OVC002
     FM060200 VRB04KT 1SM BR OVC002
     FM061300 16006KT P6SM SCT020 BKN040
     FM061700 18009KT P6SM BKN050=



000
FTUS43 KLOT 060115 AAA
TAFGYY
TAF AMD
KGYY 060115Z 0601/0624 VRB03KT 2SM BR OVC002
     FM060200 VRB04KT 1SM BR OVC002
     FM061300 16006KT P6SM SCT020 BKN040
     FM061700 18009KT P6SM BKN050=



000
FTUS43 KLOT 060115 AAA
TAFDPA
TAF AMD
KDPA 060115Z 0601/0624 06007KT 4SM BR OVC005
     FM060300 04007KT 3SM BR OVC004
     FM060600 VRB04KT 1/2SM FG OVC002
     FM061500 17005KT 5SM BR SCT020 BKN040
     FM061700 16009KT P6SM BKN050=



000
FTUS43 KLOT 060115 AAA
TAFMDW
TAF AMD
KMDW 060115Z 0601/0624 03006KT 6SM BR OVC006
     FM060300 05006KT 2SM BR OVC004
     FM060600 09004KT 1/2SM FG OVC002
     FM061300 11005KT 4SM BR OVC007
     FM061500 16005KT P6SM SCT020 BKN040
     FM062000 10008KT P6SM BKN050=



000
FTUS43 KLOT 060115 AAA
TAFORD
TAF AMD
KORD 060115Z 0601/0706 05006KT 1SM BR OVC002
     FM060600 06005KT 1/2SM FG OVC002
     FM061300 VRB04KT 4SM BR OVC007
     FM061600 16005KT P6SM SCT020 BKN040
     FM061900 10008KT P6SM BKN050
     FM070300 12005KT 6SM HZ FEW004 SCT050=



000
FTUS43 KLOT 060115 AAA
TAFGYY
TAF AMD
KGYY 060115Z 0601/0624 VRB03KT 2SM BR OVC002
     FM060200 VRB04KT 1SM BR OVC002
     FM061300 16006KT P6SM SCT020 BKN040
     FM061700 18009KT P6SM BKN050=



000
FTUS43 KLOT 060115 AAA
TAFGYY
TAF AMD
KGYY 060115Z 0601/0624 VRB03KT 2SM BR OVC002
     FM060200 VRB04KT 1SM BR OVC002
     FM061300 16006KT P6SM SCT020 BKN040
     FM061700 18009KT P6SM BKN050=



000
FTUS43 KLOT 060115 AAA
TAFORD
TAF AMD
KORD 060115Z 0601/0706 05006KT 1SM BR OVC002
     FM060600 06005KT 1/2SM FG OVC002
     FM061300 VRB04KT 4SM BR OVC007
     FM061600 16005KT P6SM SCT020 BKN040
     FM061900 10008KT P6SM BKN050
     FM070300 12005KT 6SM HZ FEW004 SCT050=



000
FTUS43 KLOT 052320
TAFRFD
TAF
KRFD 052320Z 0600/0624 07010KT P6SM OVC010
     FM060400 09006KT 4SM BR OVC005
     FM061500 17006KT P6SM SCT020 BKN040
     FM061900 19012KT P6SM BKN045=



000
FTUS43 KLOT 052320
TAFDPA
TAF
KDPA 052320Z 0600/0624 05010KT 6SM HZ OVC008
     FM060200 04007KT 3SM BR OVC006
     FM060600 VRB04KT 1/2SM FG OVC004
     FM061500 17005KT 5SM BR SCT020 BKN040
     FM061700 16009KT P6SM BKN050=



000
FTUS43 KLOT 052320
TAFGYY
TAF
KGYY 052320Z 0600/0624 36006KT 2SM BR OVC004
     FM060200 VRB04KT 1SM BR OVC002
     FM061300 16006KT P6SM SCT020 BKN040
     FM061700 18009KT P6SM BKN050=



000
FTUS43 KLOT 052320
TAFRFD
TAF
KRFD 052320Z 0600/0624 07010KT P6SM OVC010
     FM060400 09006KT 4SM BR OVC005
     FM061500 17006KT P6SM SCT020 BKN040
     FM061900 19012KT P6SM BKN045=



000
FTUS43 KLOT 052320
TAFMDW
TAF
KMDW 052320Z 0600/0624 03009KT 4SM BR OVC007
     FM060200 05006KT 2SM BR OVC004
     FM060600 09004KT 1/2SM FG OVC002
     FM061300 11005KT 4SM BR OVC007
     FM061500 16005KT P6SM SCT020 BKN040
     FM062000 10008KT P6SM BKN050=



000
FTUS43 KLOT 052320
TAFGYY
TAF
KGYY 052320Z 0600/0624 36006KT 2SM BR OVC004
     FM060200 VRB04KT 1SM BR OVC002
     FM061300 16006KT P6SM SCT020 BKN040
     FM061700 18009KT P6SM BKN050=



000
FTUS43 KLOT 052320
TAFORD
TAF
KORD 052320Z 0600/0706 04009KT 3SM BR OVC005
     FM060200 05007KT 1 1/2SM BR OVC003
     FM060600 06005KT 1/2SM FG OVC002
     FM061300 VRB04KT 4SM BR OVC007
     FM061600 16005KT P6SM SCT020 BKN040
     FM061900 10008KT P6SM BKN050
     FM070300 12005KT 6SM HZ FEW004 SCT050=



000
FTUS43 KLOT 052320
TAFGYY
TAF
KGYY 052320Z 0600/0624 36006KT 2SM BR OVC004
     FM060200 VRB04KT 1SM BR OVC002
     FM061300 16006KT P6SM SCT020 BKN040
     FM061700 18009KT P6SM BKN050=



000
FTUS43 KLOT 052320
TAFDPA
TAF
KDPA 052320Z 0600/0624 05010KT 6SM HZ OVC008
     FM060200 04007KT 3SM BR OVC006
     FM060600 VRB04KT 1/2SM FG OVC004
     FM061500 17005KT 5SM BR SCT020 BKN040
     FM061700 16009KT P6SM BKN050=



000
FTUS43 KLOT 052320
TAFMDW
TAF
KMDW 052320Z 0600/0624 03009KT 4SM BR OVC007
     FM060200 05006KT 2SM BR OVC004
     FM060600 09004KT 1/2SM FG OVC002
     FM061300 11005KT 4SM BR OVC007
     FM061500 16005KT P6SM SCT020 BKN040
     FM062000 10008KT P6SM BKN050=



000
FTUS43 KLOT 052320
TAFORD
TAF
KORD 052320Z 0600/0706 04009KT 3SM BR OVC005
     FM060200 05007KT 1 1/2SM BR OVC003
     FM060600 06005KT 1/2SM FG OVC002
     FM061300 VRB04KT 4SM BR OVC007
     FM061600 16005KT P6SM SCT020 BKN040
     FM061900 10008KT P6SM BKN050
     FM070300 12005KT 6SM HZ FEW004 SCT050=



000
FTUS43 KLOT 052320
TAFGYY
TAF
KGYY 052320Z 0600/0624 36006KT 2SM BR OVC004
     FM060200 VRB04KT 1SM BR OVC002
     FM061300 16006KT P6SM SCT020 BKN040
     FM061700 18009KT P6SM BKN050=



000
FTUS43 KLOT 052154 AAC
TAFORD
TAF AMD
KORD 052154Z 0522/0624 04010KT 3SM BR OVC005
      TEMPO 0522/0524 1 1/2SM BR
     FM060000 05007KT 1 1/2SM BR OVC003
     FM060600 06008KT 1/2SM FG OVC002
     FM061300 VRB04KT 4SM BR OVC007
     FM061600 20005KT P6SM SCT020 BKN040
     FM061900 09008KT P6SM BKN050=



000
FTUS43 KLOT 052154 AAC
TAFGYY
TAF AMD
KGYY 052154Z 0522/0618 36006KT 3/4SM BR OVC002
     FM060200 VRB04KT 1SM BR OVC002
     FM061300 18004KT P6SM SCT020 BKN040=



000
FTUS43 KLOT 052154 AAC
TAFGYY
TAF AMD
KGYY 052154Z 0522/0618 36006KT 3/4SM BR OVC002
     FM060200 VRB04KT 1SM BR OVC002
     FM061300 18004KT P6SM SCT020 BKN040=



000
FTUS43 KLOT 052154 AAC
TAFDPA
TAF AMD
KDPA 052154Z 0522/0618 05010KT 5SM BR OVC007
     FM060200 04007KT 3SM BR OVC004
     FM060600 VRB04KT 1/2SM FG OVC004
     FM061500 17005KT 5SM BR SCT020 BKN040=



000
FTUS43 KLOT 052154 AAB
TAFRFD
TAF AMD
KRFD 052154Z 0522/0618 07010KT P6SM BKN008 BKN015
     FM060400 09006KT 4SM BR OVC006
     FM061500 17006KT P6SM SCT020 BKN040=



000
FTUS43 KLOT 052154 AAC
TAFMDW
TAF AMD
KMDW 052154Z 0522/0618 02010KT 4SM BR OVC008
     FM060200 05006KT 2SM BR OVC004
     FM060600 09004KT 1/2SM FG OVC002
     FM061300 11005KT 4SM BR OVC007
     FM061500 20005KT P6SM SCT020 BKN040=



000
FTUS43 KLOT 051941 AAB
TAFGYY
TAF AMD
KGYY 051941Z 0520/0618 03011KT 1/2SM FG OVC002
     FM052200 02010KT 1 1/2SM BR VCSH OVC004
     FM060200 VRB04KT 1SM BR OVC004
     FM061300 18004KT P6SM SCT020 BKN040=



000
FTUS43 KLOT 051941 AAB
TAFGYY
TAF AMD
KGYY 051941Z 0520/0618 03011KT 1/2SM FG OVC002
     FM052200 02010KT 1 1/2SM BR VCSH OVC004
     FM060200 VRB04KT 1SM BR OVC004
     FM061300 18004KT P6SM SCT020 BKN040=



000
FTUS43 KLOT 051941 AAB
TAFGYY
TAF AMD
KGYY 051941Z 0520/0618 03011KT 1/2SM FG OVC002
     FM052200 02010KT 1 1/2SM BR VCSH OVC004
     FM060200 VRB04KT 1SM BR OVC004
     FM061300 18004KT P6SM SCT020 BKN040=



000
FTUS43 KLOT 051938 AAB
TAFMDW
TAF AMD
KMDW 051938Z 0520/0618 03010KT 3SM BR BKN007 OVC050
      TEMPO 0520/0522 4SM BR SCT007 BKN012 OVC050
     FM060200 05006KT 2SM BR OVC004
     FM060600 09004KT 1/2SM FG OVC002
     FM061300 11005KT 4SM BR OVC007
     FM061500 20005KT P6SM SCT020 BKN040=



000
FTUS43 KLOT 051938 AAA
TAFGYY
TAF AMD
KGYY 051938Z 0520/0618 03011KT 1SM BR OVC002
     FM052200 02010KT 3SM BR VCSH OVC004
     FM060200 VRB04KT 1SM BR OVC004
     FM061300 18004KT P6SM SCT020 BKN040=



000
FTUS43 KLOT 051938 AAB
TAFORD
TAF AMD
KORD 051938Z 0520/0624 03010KT 2SM BR OVC004
      TEMPO 0520/0524 1SM BR OVC002
     FM060000 05007KT 1 1/2SM BR OVC003
     FM060600 06008KT 1/2SM FG OVC002
     FM061300 VRB04KT 4SM BR OVC007
     FM061600 20005KT P6SM SCT020 BKN040
     FM061900 09008KT P6SM BKN050=



000
FTUS43 KLOT 051938 AAA
TAFRFD
TAF AMD
KRFD 051938Z 0520/0618 08009KT P6SM OVC007
     FM060400 09006KT 4SM BR OVC006
     FM061500 17006KT P6SM SCT020 BKN040=



000
FTUS43 KLOT 051938 AAB
TAFDPA
TAF AMD
KDPA 051938Z 0520/0618 06010KT 5SM BR OVC006
     FM060200 04007KT 3SM BR OVC004
     FM060600 VRB04KT 1/2SM FG OVC004
     FM061500 17005KT 5SM BR SCT020 BKN040=



000
FTUS43 KLOT 051858 AAA
TAFDPA
TAF AMD
KDPA 051858Z 0519/0618 06010KT 5SM BR OVC006
     FM060200 04007KT 3SM BR OVC004
     FM060600 VRB04KT 3/4SM BR OVC004
     FM061500 17005KT 5SM BR SCT020 BKN040=



000
FTUS43 KLOT 051858 AAA
TAFDPA
TAF AMD
KDPA 051858Z 0519/0618 06010KT 5SM BR OVC006
     FM060200 04007KT 3SM BR OVC004
     FM060600 VRB04KT 3/4SM BR OVC004
     FM061500 17005KT 5SM BR SCT020 BKN040=



000
FTUS43 KLOT 051850 AAA
TAFMDW
TAF AMD
KMDW 051850Z 0519/0618 02010KT 3SM BR BKN007 OVC050
     FM060200 05006KT 2SM BR OVC004
     FM061300 11005KT 4SM BR OVC007
     FM061500 20005KT P6SM SCT020 BKN040=



000
FTUS43 KLOT 051850 AAA
TAFMDW
TAF AMD
KMDW 051850Z 0519/0618 02010KT 3SM BR BKN007 OVC050
     FM060200 05006KT 2SM BR OVC004
     FM061300 11005KT 4SM BR OVC007
     FM061500 20005KT P6SM SCT020 BKN040=



000
FTUS43 KLOT 051846 AAA
TAFORD
TAF AMD
KORD 051846Z 0519/0624 03010KT 3SM BR OVC004
     FM060000 05007KT 2SM BR OVC003
     FM060300 06008KT 1SM BR OVC002
     FM061300 VRB04KT 4SM BR OVC007
     FM061600 20005KT P6SM SCT020 BKN040
     FM061900 09008KT P6SM BKN050=



000
FTUS43 KLOT 051846 AAA
TAFORD
TAF AMD
KORD 051846Z 0519/0624 03010KT 3SM BR OVC004
     FM060000 05007KT 2SM BR OVC003
     FM060300 06008KT 1SM BR OVC002
     FM061300 VRB04KT 4SM BR OVC007
     FM061600 20005KT P6SM SCT020 BKN040
     FM061900 09008KT P6SM BKN050=



000
FTUS43 KLOT 051738
TAFMDW
TAF
KMDW 051738Z 0518/0618 02009KT 5SM BR SCT006 BKN015 OVC050
     FM052000 02010KT 5SM BR VCSH SCT006 BKN010 BKN050
     FM060200 05006KT 2SM BR OVC004
     FM061300 11005KT 4SM BR OVC007
     FM061500 20005KT P6SM SCT020 BKN040=



000
FTUS43 KLOT 051738
TAFORD
TAF
KORD 051738Z 0518/0624 02009KT 2SM BR OVC003
     FM052000 03010KT 3SM BR OVC006
     FM060200 05007KT 1SM BR OVC004
     FM061300 VRB04KT 4SM BR OVC007
     FM061600 20005KT P6SM SCT020 BKN040
     FM061900 09008KT P6SM BKN050=



000
FTUS43 KLOT 051738
TAFRFD
TAF
KRFD 051738Z 0518/0618 08009KT P6SM OVC006
     FM052100 08010KT P6SM SCT008 OVC015
     FM060400 09006KT 4SM BR OVC006
     FM061500 17006KT P6SM SCT020 BKN040=



000
FTUS43 KLOT 051738
TAFDPA
TAF
KDPA 051738Z 0518/0618 06010KT 2SM BR OVC003
     FM052000 06011KT 4SM BR BKN006 OVC012
     FM060200 04007KT 3SM BR OVC004
     FM060600 VRB04KT 3/4SM BR OVC004
     FM061500 17005KT 5SM BR SCT020 BKN040=



000
FTUS43 KLOT 051738
TAFGYY
TAF
KGYY 051738Z 0518/0618 03011KT 1SM BR OVC002
     FM052000 02010KT 5SM BR VCSH SCT004 BKN007
     FM060200 VRB04KT 2SM BR OVC004
     FM061300 18004KT P6SM SCT020 BKN040=



000
FTUS43 KLOT 051738
TAFGYY
TAF
KGYY 051738Z 0518/0618 03011KT 1SM BR OVC002
     FM052000 02010KT 5SM BR VCSH SCT004 BKN007
     FM060200 VRB04KT 2SM BR OVC004
     FM061300 18004KT P6SM SCT020 BKN040=



000
FTUS43 KLOT 051711 AAC
TAFORD
TAF AMD
KORD 051711Z 0517/0618 02009KT 1 1/2SM BR OVC002
     FM052000 03010KT 3SM BR OVC004
     FM060200 05007KT 1SM BR OVC004
     FM061300 VRB04KT 4SM BR OVC007
     FM061600 20005KT P6SM SCT020 BKN040=



000
FTUS43 KLOT 051526 AAB
TAFGYY
TAF AMD
KGYY 051526Z 0515/0612 01007KT 3SM -SHRA BR VCTS OVC003CB
     FM051800 03011KT 4SM -SHRA BR OVC004
     FM052000 02010KT 5SM BR VCTS OVC007CB
     FM060100 07007KT 3SM BR OVC004=



000
FTUS43 KLOT 051526 AAB
TAFDPA
TAF AMD
KDPA 051526Z 0515/0612 06010KT 2SM BR OVC004
     FM051700 06011KT 6SM BR OVC007
     FM052000 05010KT P6SM VCSH BKN012 OVC020
     FM060200 04007KT 5SM BR OVC009
     FM060600 VRB04KT 2SM BR OVC004=



000
FTUS43 KLOT 051526 AAB
TAFRFD
TAF AMD
KRFD 051526Z 0515/0612 08009KT P6SM OVC008
     FM052100 08010KT P6SM OVC015
     FM060400 09006KT 4SM BR OVC008=



000
FTUS43 KLOT 051526 AAB
TAFORD
TAF AMD
KORD 051526Z 0515/0618 06010KT 6SM BR OVC005
     FM051700 06011KT P6SM OVC009
     FM052000 05010KT P6SM VCSH BKN012 OVC020
     FM060200 04007KT 2SM BR OVC006
     FM061500 11005KT P6SM BKN020 BKN050=



000
FTUS43 KLOT 051526 AAC
TAFMDW
TAF AMD
KMDW 051526Z 0515/0612 06010KT 3SM BR VCSH OVC004
     FM051700 05011KT P6SM OVC009
     FM052000 04010KT P6SM VCTS BKN012 OVC020CB
     FM060200 04006KT 2SM BR OVC006=



000
FTUS43 KLOT 051526 AAB
TAFGYY
TAF AMD
KGYY 051526Z 0515/0612 01007KT 3SM -SHRA BR VCTS OVC003CB
     FM051800 03011KT 4SM -SHRA BR OVC004
     FM052000 02010KT 5SM BR VCTS OVC007CB
     FM060100 07007KT 3SM BR OVC004=



000
FTUS43 KLOT 051335 CCA
TAFMDW
TAF COR
KMDW 051335Z 0514/0612 08010KT 4SM -SHRA BR BKN006 BKN015 OVC080
     FM051700 07011KT P6SM BKN010 BKN050
     FM052100 07010KT P6SM VCSH BKN015 BKN050
     FM060300 08007KT 3SM BR BKN015 BKN050=



000
FTUS43 KLOT 051335 CCA
TAFMDW
TAF COR
KMDW 051335Z 0514/0612 08010KT 4SM -SHRA BR BKN006 BKN015 OVC080
     FM051700 07011KT P6SM BKN010 BKN050
     FM052100 07010KT P6SM VCSH BKN015 BKN050
     FM060300 08007KT 3SM BR BKN015 BKN050=



000
FTUS43 KLOT 051334 AAB
TAFMDW
TAF AMD
KMDW 051334Z 0514/0612 08010KT 4SM -SHRA BR BKN006 BKN015 OVC080
     FM051700 07011KT P6SM BKN010 BKN050
     FM052100 07010KT P6SM VCSH BKN015 BKN050
     FM060300 08007KT 3SM BR BKN015 BKN050=



000
FTUS43 KLOT 051334 AAA
TAFGYY
TAF AMD
KGYY 051334Z 0514/0612 01007KT 3SM -SHRA BR OVC003
     FM051600 03011KT 6SM -SHRA BR OVC007
     FM052100 02010KT P6SM VCSH BKN015 BKN050
     FM060100 07007KT 5SM BR BKN010 BKN050=



000
FTUS43 KLOT 051334 AAB
TAFMDW
TAF AMD
KMDW 051334Z 0514/0612 08010KT 4SM -SHRA BR BKN006 BKN015 OVC080
     FM051700 07011KT P6SM BKN010 BKN050
     FM052100 07010KT P6SM VCSH BKN015 BKN050
     FM060300 08007KT 3SM BR BKN015 BKN050=



000
FTUS43 KLOT 051334 AAA
TAFORD
TAF AMD
KORD 051334Z 0514/0618 06010KT 6SM -RA BR BKN005 BKN080
     FM051700 07011KT P6SM BKN010 BKN050
     FM052100 07010KT P6SM VCSH BKN015 BKN050
     FM060300 08007KT 3SM BR BKN015 BKN050
     FM061500 11007KT P6SM BKN050=



000
FTUS43 KLOT 051334 AAA
TAFMDW
TAF AMD
KMDW 051334Z 0514/0612 03010KT 4SM -SHRA BR BKN006 BKN015 OVC080
     FM051700 07011KT P6SM BKN010 BKN050
     FM052100 07010KT P6SM VCSH BKN015 BKN050
     FM060300 08007KT 3SM BR BKN015 BKN050=



000
FTUS43 KLOT 051334 AAA
TAFRFD
TAF AMD
KRFD 051334Z 0514/0612 08009KT P6SM BKN010 BKN090
     FM052100 10011KT P6SM SCT015 BKN090
     FM060200 09008KT 6SM BR BKN025 OVC035
     FM060600 09007KT 4SM BR OVC008=



000
FTUS43 KLOT 051334 AAA
TAFDPA
TAF AMD
KDPA 051334Z 0514/0612 03008KT 6SM -SHRA BR BKN010 OVC070
     FM051700 07011KT P6SM BKN015 BKN050
     FM052000 07010KT P6SM VCSH SCT010 BKN050
     FM060100 08007KT P6SM FEW015 BKN050=



000
FTUS43 KLOT 051334 AAA
TAFGYY
TAF AMD
KGYY 051334Z 0514/0612 01007KT 3SM -SHRA BR OVC003
     FM051600 03011KT 6SM -SHRA BR OVC007
     FM052100 02010KT P6SM VCSH BKN015 BKN050
     FM060100 07007KT 5SM BR BKN010 BKN050=



000
FTUS43 KLOT 051334 AAA
TAFRFD
TAF AMD
KRFD 051334Z 0514/0612 08009KT P6SM BKN010 BKN090
     FM052100 10011KT P6SM SCT015 BKN090
     FM060200 09008KT 6SM BR BKN025 OVC035
     FM060600 09007KT 4SM BR OVC008=



000
FTUS43 KLOT 051127
TAFRFD
TAF
KRFD 051127Z 0512/0612 10009KT 6SM -SHRA BR BKN090
     FM051400 10011KT P6SM SCT015 BKN090
     FM060200 09007KT P6SM SCT015 BKN050=



000
FTUS43 KLOT 051127
TAFMDW
TAF
KMDW 051127Z 0512/0612 03010KT 3SM -SHRA BR BKN015 BKN040
     FM051400 07011KT P6SM SCT015 BKN050
     FM052000 07010KT P6SM VCSH SCT010 BKN050
     FM060100 08007KT P6SM BKN015 BKN050=



000
FTUS43 KLOT 051127
TAFGYY
TAF
KGYY 051127Z 0512/0612 04007KT 5SM -SHRA BR BKN010 OVC070
     FM051600 05011KT P6SM SCT015 BKN050
     FM052100 07010KT P6SM VCSH SCT010 BKN050
     FM060100 07007KT P6SM SCT020 BKN050=



000
FTUS43 KLOT 051127
TAFORD
TAF
KORD 051127Z 0512/0618 03010KT 5SM -SHRA BR BKN015 BKN040
     FM051400 07011KT P6SM FEW015 BKN050
     FM052000 07010KT P6SM VCSH SCT010 BKN050
     FM060100 08007KT P6SM FEW015 BKN050
     FM061500 11007KT P6SM BKN050=



000
FTUS43 KLOT 051127
TAFDPA
TAF
KDPA 051127Z 0512/0612 03008KT 5SM -SHRA BR FEW010 SCT015 OVC070
     FM051400 07011KT P6SM FEW010 BKN050
     FM052000 07010KT P6SM VCSH SCT010 BKN050
     FM060100 08007KT P6SM FEW015 BKN050=



000
FTUS43 KLOT 050858 AAA
TAFMDW
TAF AMD
KMDW 050858Z 0509/0606 04007KT 4SM -SHRA VCTS BKN015CB OVC040
     FM051200 09010KT 3SM -SHRA BR OVC010
     FM051800 07011KT P6SM BKN010 BKN050 PROB30 0520/0524 -SHRA
     FM060200 08007KT P6SM BKN015 BKN050=



000
FTUS43 KLOT 050858 AAA
TAFGYY
TAF AMD
KGYY 050858Z 0509/0606 04007KT 4SM -SHRA VCTS BKN025CB OVC040
     FM051200 09010KT 3SM -SHRA BR OVC010
     FM051800 05011KT P6SM SCT015 BKN050 PROB30 0519/0523 -SHRA
     FM060200 07007KT P6SM SCT020 BKN050=



000
FTUS43 KLOT 050858 AAA
TAFORD
TAF AMD
KORD 050858Z 0509/0612 04007KT 4SM -SHRA VCTS BKN020CB OVC040
     FM051200 09010KT 3SM -SHRA BR OVC010
     FM051800 07011KT P6SM BKN010 BKN050 PROB30 0520/0524 -SHRA
     FM060200 08007KT P6SM BKN015 BKN050=



000
FTUS43 KLOT 050858 AAA
TAFDPA
TAF AMD
KDPA 050858Z 0509/0606 04007KT 3SM -SHRA VCTS BKN025CB OVC040
     FM051200 09010KT 3SM -SHRA BR OVC010
     FM051800 07011KT P6SM BKN010 BKN050 PROB30 0520/0524 -SHRA
     FM060200 08007KT P6SM BKN015 BKN050=



000
FTUS43 KLOT 050858 AAA
TAFRFD
TAF AMD
KRFD 050858Z 0509/0606 08007KT 5SM -SHRA SCT020 BKN045
     FM051100 10009KT 4SM -SHRA BR OVC010
     FM051600 10011KT P6SM BKN010 BKN035
     FM060200 09007KT P6SM BKN010 BKN050=



000
FTUS43 KLOT 050858 AAA
TAFMDW
TAF AMD
KMDW 050858Z 0509/0606 04007KT 4SM -SHRA VCTS BKN015CB OVC040
     FM051200 09010KT 3SM -SHRA BR OVC010
     FM051800 07011KT P6SM BKN010 BKN050 PROB30 0520/0524 -SHRA
     FM060200 08007KT P6SM BKN015 BKN050=



000
FTUS43 KLOT 050858 AAA
TAFGYY
TAF AMD
KGYY 050858Z 0509/0606 04007KT 4SM -SHRA VCTS BKN025CB OVC040
     FM051200 09010KT 3SM -SHRA BR OVC010
     FM051800 05011KT P6SM SCT015 BKN050 PROB30 0519/0523 -SHRA
     FM060200 07007KT P6SM SCT020 BKN050=



000
FTUS43 KLOT 050858 AAA
TAFORD
TAF AMD
KORD 050858Z 0509/0612 04007KT 4SM -SHRA VCTS BKN020CB OVC040
     FM051200 09010KT 3SM -SHRA BR OVC010
     FM051800 07011KT P6SM BKN010 BKN050 PROB30 0520/0524 -SHRA
     FM060200 08007KT P6SM BKN015 BKN050=



000
FTUS43 KLOT 050858 AAA
TAFRFD
TAF AMD
KRFD 050858Z 0509/0606 08007KT 5SM -SHRA SCT020 BKN045
     FM051100 10009KT 4SM -SHRA BR OVC010
     FM051600 10011KT P6SM BKN010 BKN035
     FM060200 09007KT P6SM BKN010 BKN050=



000
FTUS43 KLOT 050858 AAA
TAFDPA
TAF AMD
KDPA 050858Z 0509/0606 04007KT 3SM -SHRA VCTS BKN025CB OVC040
     FM051200 09010KT 3SM -SHRA BR OVC010
     FM051800 07011KT P6SM BKN010 BKN050 PROB30 0520/0524 -SHRA
     FM060200 08007KT P6SM BKN015 BKN050=



000
FTUS43 KLOT 050858 AAA
TAFGYY
TAF AMD
KGYY 050858Z 0509/0606 04007KT 4SM -SHRA VCTS BKN025CB OVC040
     FM051200 09010KT 3SM -SHRA BR OVC010
     FM051800 05011KT P6SM SCT015 BKN050 PROB30 0519/0523 -SHRA
     FM060200 07007KT P6SM SCT020 BKN050=



000
FTUS43 KLOT 050524
TAFRFD
TAF
KRFD 050524Z 0506/0606 08007KT 3SM -SHRA VCTS SCT025CB BKN045
     FM051100 10009KT 4SM -SHRA BR OVC010
     FM051600 10011KT P6SM SCT010 BKN035 PROB30 0517/0521 -SHRA
     FM060200 09007KT P6SM BKN010 BKN050=



000
FTUS43 KLOT 050524
TAFGYY
TAF
KGYY 050524Z 0506/0606 04004KT P6SM BKN080 OVC250
     FM050730 05007KT 6SM -SHRA VCTS BKN030CB BKN045
     FM050900 06009KT 4SM -SHRA VCTS BKN025CB OVC040
     FM051200 09010KT 3SM -SHRA BR OVC010
     FM051800 05011KT P6SM SCT015 BKN050 PROB30 0519/0522 -SHRA
     FM060200 07007KT P6SM SCT020 BKN050=



000
FTUS43 KLOT 050524
TAFORD
TAF
KORD 050524Z 0506/0612 05007KT 6SM -SHRA VCTS BKN030CB BKN090
     FM051000 07009KT 4SM -SHRA VCTS BKN025CB OVC040
     FM051200 09010KT 3SM -SHRA BR OVC010
     FM051800 07011KT P6SM BKN010 BKN050 PROB30 0518/0521 -SHRA
     FM060200 08007KT P6SM BKN015 BKN050=



000
FTUS43 KLOT 050524
TAFMDW
TAF
KMDW 050524Z 0506/0606 06007KT 6SM -SHRA VCTS BKN030CB BKN090
     FM051000 06009KT 4SM -SHRA VCTS BKN025CB OVC040
     FM051200 09010KT 3SM -SHRA BR OVC010
     FM051800 07011KT P6SM BKN010 BKN050 PROB30 0518/0521 -SHRA
     FM060200 08007KT P6SM BKN015 BKN050=



000
FTUS43 KLOT 050524
TAFDPA
TAF
KDPA 050524Z 0506/0606 06007KT 6SM -SHRA VCTS BKN030CB BKN090
     FM051000 07009KT 4SM -SHRA VCTS BKN025CB OVC040
     FM051200 09010KT 3SM -SHRA BR OVC010
     FM051800 07011KT P6SM BKN010 BKN050 PROB30 0518/0521 -SHRA
     FM060200 08007KT P6SM BKN015 BKN050=



000
FTUS43 KLOT 050524
TAFGYY
TAF
KGYY 050524Z 0506/0606 04004KT P6SM BKN080 OVC250
     FM050730 05007KT 6SM -SHRA VCTS BKN030CB BKN045
     FM050900 06009KT 4SM -SHRA VCTS BKN025CB OVC040
     FM051200 09010KT 3SM -SHRA BR OVC010
     FM051800 05011KT P6SM SCT015 BKN050 PROB30 0519/0522 -SHRA
     FM060200 07007KT P6SM SCT020 BKN050=



000
FTUS43 KLOT 050524
TAFGYY
TAF
KGYY 050524Z 0506/0606 04004KT P6SM BKN080 OVC250
     FM050730 05007KT 6SM -SHRA VCTS BKN030CB BKN045
     FM050900 06009KT 4SM -SHRA VCTS BKN025CB OVC040
     FM051200 09010KT 3SM -SHRA BR OVC010
     FM051800 05011KT P6SM SCT015 BKN050 PROB30 0519/0522 -SHRA
     FM060200 07007KT P6SM SCT020 BKN050=



000
FTUS43 KLOT 050310 AAA
TAFGYY
TAF AMD
KGYY 050310Z 0503/0524 04007KT P6SM BKN100 OVC250
     FM050700 05007KT 6SM -SHRA VCTS SCT030CB BKN045
     FM050900 06009KT 4SM -SHRA VCTS BKN025CB OVC040
     FM051200 09010KT 3SM -SHRA BR OVC010
     FM051800 05011KT P6SM SCT015 BKN050=



000
FTUS43 KLOT 050310 AAB
TAFRFD
TAF AMD
KRFD 050310Z 0503/0524 08012KT P6SM SCT060 BKN250
     FM050400 08009KT 6SM -SHRA VCTS SCT035CB BKN045
     FM051000 10009KT 4SM -SHRA BR OVC010
     FM051600 10011KT P6SM SCT010 BKN035=



000
FTUS43 KLOT 050310 AAA
TAFGYY
TAF AMD
KGYY 050310Z 0503/0524 04007KT P6SM BKN100 OVC250
     FM050700 05007KT 6SM -SHRA VCTS SCT030CB BKN045
     FM050900 06009KT 4SM -SHRA VCTS BKN025CB OVC040
     FM051200 09010KT 3SM -SHRA BR OVC010
     FM051800 05011KT P6SM SCT015 BKN050=



000
FTUS43 KLOT 050310 AAA
TAFMDW
TAF AMD
KMDW 050310Z 0503/0524 07006KT P6SM SCT045 BKN080
     FM050600 06007KT 6SM -SHRA VCTS SCT030CB BKN045
     FM050900 06009KT 4SM -SHRA VCTS BKN025CB OVC040
     FM051200 06010KT 3SM -SHRA BR OVC010
     FM051800 07011KT P6SM SCT015 BKN050=



000
FTUS43 KLOT 050310 AAA
TAFGYY
TAF AMD
KGYY 050310Z 0503/0524 04007KT P6SM BKN100 OVC250
     FM050700 05007KT 6SM -SHRA VCTS SCT030CB BKN045
     FM050900 06009KT 4SM -SHRA VCTS BKN025CB OVC040
     FM051200 09010KT 3SM -SHRA BR OVC010
     FM051800 05011KT P6SM SCT015 BKN050=



000
FTUS43 KLOT 050310 AAB
TAFRFD
TAF AMD
KRFD 050310Z 0503/0524 08012KT P6SM SCT060 BKN250
     FM050400 08009KT 6SM -SHRA VCTS SCT035CB BKN045
     FM051000 10009KT 4SM -SHRA BR OVC010
     FM051600 10011KT P6SM SCT010 BKN035=



000
FTUS43 KLOT 050310 AAA
TAFDPA
TAF AMD
KDPA 050310Z 0503/0524 05007KT P6SM SCT045 BKN080
     FM050530 06007KT 6SM -SHRA VCTS SCT030CB BKN045
     FM050900 06009KT 4SM -SHRA VCTS BKN025CB OVC040
     FM051200 06010KT 3SM -SHRA BR OVC010
     FM051800 07011KT P6SM SCT015 BKN050=



000
FTUS43 KLOT 050310 AAA
TAFDPA
TAF AMD
KDPA 050310Z 0503/0524 05007KT P6SM SCT045 BKN080
     FM050530 06007KT 6SM -SHRA VCTS SCT030CB BKN045
     FM050900 06009KT 4SM -SHRA VCTS BKN025CB OVC040
     FM051200 06010KT 3SM -SHRA BR OVC010
     FM051800 07011KT P6SM SCT015 BKN050=



000
FTUS43 KLOT 050310 AAA
TAFMDW
TAF AMD
KMDW 050310Z 0503/0524 07006KT P6SM SCT045 BKN080
     FM050600 06007KT 6SM -SHRA VCTS SCT030CB BKN045
     FM050900 06009KT 4SM -SHRA VCTS BKN025CB OVC040
     FM051200 06010KT 3SM -SHRA BR OVC010
     FM051800 07011KT P6SM SCT015 BKN050=



000
FTUS43 KLOT 050310 AAA
TAFORD
TAF AMD
KORD 050310Z 0503/0606 04006KT P6SM SCT045 BKN080
     FM050600 05007KT 6SM -SHRA VCTS SCT030CB BKN045
     FM050900 06009KT 4SM -SHRA VCTS BKN025CB OVC040
     FM051200 06010KT 3SM -SHRA BR OVC010
     FM051800 07011KT P6SM SCT015 BKN050
     FM060200 08007KT P6SM BKN060=



000
FTUS43 KLOT 050310 AAA
TAFORD
TAF AMD
KORD 050310Z 0503/0606 04006KT P6SM SCT045 BKN080
     FM050600 05007KT 6SM -SHRA VCTS SCT030CB BKN045
     FM050900 06009KT 4SM -SHRA VCTS BKN025CB OVC040
     FM051200 06010KT 3SM -SHRA BR OVC010
     FM051800 07011KT P6SM SCT015 BKN050
     FM060200 08007KT P6SM BKN060=



000
FTUS43 KLOT 050310 AAA
TAFGYY
TAF AMD
KGYY 050310Z 0503/0524 04007KT P6SM BKN100 OVC250
     FM050700 05007KT 6SM -SHRA VCTS SCT030CB BKN045
     FM050900 06009KT 4SM -SHRA VCTS BKN025CB OVC040
     FM051200 09010KT 3SM -SHRA BR OVC010
     FM051800 05011KT P6SM SCT015 BKN050=



000
FTUS43 KLOT 050216 AAA
TAFRFD
TAF AMD
KRFD 050216Z 0502/0524 08012KT P6SM SCT060 BKN250
     FM050400 08009KT 6SM -SHRA VCTS SCT035CB BKN045
     FM051000 10009KT 4SM -SHRA BR OVC010
     FM051600 10011KT P6SM SCT010 BKN035=



000
FTUS43 KLOT 042329
TAFGYY
TAF
KGYY 042329Z 0500/0524 07009KT P6SM FEW045 SCT100 BKN250
     FM050700 06007KT 6SM -SHRA VCTS SCT030CB BKN045
     FM050900 06009KT 4SM -SHRA VCTS BKN025CB OVC040 PROB30
      0509/0512 3SM -TSRA OVC025CB
     FM051200 09010KT 3SM -SHRA BR OVC010
     FM051800 05011KT P6SM SCT015 BKN050=



000
FTUS43 KLOT 042329
TAFORD
TAF
KORD 042329Z 0500/0606 05009KT P6SM FEW045 SCT100 BKN250
     FM050600 06007KT 6SM -SHRA VCTS SCT030CB BKN045
     FM050900 06009KT 4SM -SHRA VCTS BKN025CB OVC040
     FM051200 06010KT 3SM -SHRA BR OVC010
     FM051800 07011KT P6SM SCT015 BKN050
     FM060200 08007KT P6SM BKN060=



000
FTUS43 KLOT 042329
TAFMDW
TAF
KMDW 042329Z 0500/0524 05009KT P6SM FEW045 SCT100 BKN250
     FM050600 06007KT 6SM -SHRA VCTS SCT030CB BKN045
     FM050900 06009KT 4SM -SHRA VCTS BKN025CB OVC040
     FM051200 06010KT 3SM -SHRA BR OVC010
     FM051800 07011KT P6SM SCT015 BKN050=



000
FTUS43 KLOT 042329
TAFORD
TAF
KORD 042329Z 0500/0606 05009KT P6SM FEW045 SCT100 BKN250
     FM050600 06007KT 6SM -SHRA VCTS SCT030CB BKN045
     FM050900 06009KT 4SM -SHRA VCTS BKN025CB OVC040
     FM051200 06010KT 3SM -SHRA BR OVC010
     FM051800 07011KT P6SM SCT015 BKN050
     FM060200 08007KT P6SM BKN060=



000
FTUS43 KLOT 042329
TAFMDW
TAF
KMDW 042329Z 0500/0524 05009KT P6SM FEW045 SCT100 BKN250
     FM050600 06007KT 6SM -SHRA VCTS SCT030CB BKN045
     FM050900 06009KT 4SM -SHRA VCTS BKN025CB OVC040
     FM051200 06010KT 3SM -SHRA BR OVC010
     FM051800 07011KT P6SM SCT015 BKN050=



000
FTUS43 KLOT 042329
TAFRFD
TAF
KRFD 042329Z 0500/0524 07007KT P6SM FEW045 SCT080 BKN250
     FM050500 08006KT 4SM -SHRA VCTS SCT030CB BKN040
     FM051000 10009KT 4SM -SHRA BR OVC010
     FM051600 10011KT P6SM SCT010 BKN035=



000
FTUS43 KLOT 042329
TAFGYY
TAF
KGYY 042329Z 0500/0524 07009KT P6SM FEW045 SCT100 BKN250
     FM050700 06007KT 6SM -SHRA VCTS SCT030CB BKN045
     FM050900 06009KT 4SM -SHRA VCTS BKN025CB OVC040 PROB30
      0509/0512 3SM -TSRA OVC025CB
     FM051200 09010KT 3SM -SHRA BR OVC010
     FM051800 05011KT P6SM SCT015 BKN050=



000
FTUS43 KLOT 042329
TAFRFD
TAF
KRFD 042329Z 0500/0524 07007KT P6SM FEW045 SCT080 BKN250
     FM050500 08006KT 4SM -SHRA VCTS SCT030CB BKN040
     FM051000 10009KT 4SM -SHRA BR OVC010
     FM051600 10011KT P6SM SCT010 BKN035=



000
FTUS43 KLOT 042329
TAFGYY
TAF
KGYY 042329Z 0500/0524 07009KT P6SM FEW045 SCT100 BKN250
     FM050700 06007KT 6SM -SHRA VCTS SCT030CB BKN045
     FM050900 06009KT 4SM -SHRA VCTS BKN025CB OVC040 PROB30
      0509/0512 3SM -TSRA OVC025CB
     FM051200 09010KT 3SM -SHRA BR OVC010
     FM051800 05011KT P6SM SCT015 BKN050=



000
FTUS43 KLOT 042329
TAFGYY
TAF
KGYY 042329Z 0500/0524 07009KT P6SM FEW045 SCT100 BKN250
     FM050700 06007KT 6SM -SHRA VCTS SCT030CB BKN045
     FM050900 06009KT 4SM -SHRA VCTS BKN025CB OVC040 PROB30
      0509/0512 3SM -TSRA OVC025CB
     FM051200 09010KT 3SM -SHRA BR OVC010
     FM051800 05011KT P6SM SCT015 BKN050=



000
FTUS43 KLOT 042329
TAFDPA
TAF
KDPA 042329Z 0500/0524 07009KT P6SM FEW045 SCT100 BKN250
     FM050600 06007KT 6SM -SHRA VCTS SCT030CB BKN045
     FM050900 06009KT 4SM -SHRA VCTS BKN025CB OVC040
     FM051200 06010KT 3SM -SHRA BR OVC010
     FM051800 07011KT P6SM SCT015 BKN050=



000
FTUS43 KLOT 042329
TAFDPA
TAF
KDPA 042329Z 0500/0524 07009KT P6SM FEW045 SCT100 BKN250
     FM050600 06007KT 6SM -SHRA VCTS SCT030CB BKN045
     FM050900 06009KT 4SM -SHRA VCTS BKN025CB OVC040
     FM051200 06010KT 3SM -SHRA BR OVC010
     FM051800 07011KT P6SM SCT015 BKN050=



000
FTUS43 KLOT 042205 AAC
TAFORD
TAF AMD
KORD 042205Z 0422/0524 06010KT P6SM FEW045 SCT100 BKN150
     FM050500 06007KT 6SM -SHRA VCTS SCT030 BKN050 BKN100CB
     FM050900 06007KT 4SM -SHRA VCTS BKN025 OVC050CB
     FM051100 06011KT 3SM -SHRA BR OVC010
     FM051800 06011KT P6SM SCT015 BKN050=



000
FTUS43 KLOT 042205 AAD
TAFGYY
TAF AMD
KGYY 042205Z 0422/0518 07012KT P6SM FEW035 SCT100 BKN150
     FM050000 07009KT P6SM BKN040
     FM050530 06008KT 4SM -SHRA VCTS SCT025 BKN050 BKN100CB PROB30
      0507/0512 3SM TSRA OVC020CB
     FM051200 06011KT 3SM -SHRA BR OVC010=



000
FTUS43 KLOT 042205 AAB
TAFDPA
TAF AMD
KDPA 042205Z 0422/0518 06008KT P6SM SCT035 SCT100 BKN150
     FM050000 05008KT P6SM SCT040 BKN150
     FM050500 05007KT 4SM -SHRA VCTS SCT025 BKN050 BKN100CB PROB30
      0508/0512 3SM TSRA OVC015CB
     FM051200 06011KT 3SM -SHRA BR OVC010=



000
FTUS43 KLOT 042205 AAB
TAFRFD
TAF AMD
KRFD 042205Z 0422/0518 13006KT P6SM BKN045 BKN200
     FM050100 07009KT P6SM VCSH OVC050
     FM050400 07007KT 4SM -SHRA VCTS OVC025CB
     FM051000 10009KT 4SM -SHRA BR OVC010=



000
FTUS43 KLOT 042205 AAC
TAFMDW
TAF AMD
KMDW 042205Z 0422/0518 07010KT P6SM FEW035 SCT100 BKN150
     FM050500 06008KT 6SM -SHRA VCTS SCT030 BKN050 BKN100CB
     FM050900 06007KT 4SM -SHRA VCTS BKN025 OVC050CB
     FM051100 06011KT 3SM -SHRA BR OVC010=



000
FTUS43 KLOT 042205 AAD
TAFGYY
TAF AMD
KGYY 042205Z 0422/0518 07012KT P6SM FEW035 SCT100 BKN150
     FM050000 07009KT P6SM BKN040
     FM050530 06008KT 4SM -SHRA VCTS SCT025 BKN050 BKN100CB PROB30
      0507/0512 3SM TSRA OVC020CB
     FM051200 06011KT 3SM -SHRA BR OVC010=



000
FTUS43 KLOT 042205 AAD
TAFGYY
TAF AMD
KGYY 042205Z 0422/0518 07012KT P6SM FEW035 SCT100 BKN150
     FM050000 07009KT P6SM BKN040
     FM050530 06008KT 4SM -SHRA VCTS SCT025 BKN050 BKN100CB PROB30
      0507/0512 3SM TSRA OVC020CB
     FM051200 06011KT 3SM -SHRA BR OVC010=



000
FTUS43 KLOT 042205 AAB
TAFDPA
TAF AMD
KDPA 042205Z 0422/0518 06008KT P6SM SCT035 SCT100 BKN150
     FM050000 05008KT P6SM SCT040 BKN150
     FM050500 05007KT 4SM -SHRA VCTS SCT025 BKN050 BKN100CB PROB30
      0508/0512 3SM TSRA OVC015CB
     FM051200 06011KT 3SM -SHRA BR OVC010=



000
FTUS43 KLOT 042205 AAC
TAFORD
TAF AMD
KORD 042205Z 0422/0524 06010KT P6SM FEW045 SCT100 BKN150
     FM050500 06007KT 6SM -SHRA VCTS SCT030 BKN050 BKN100CB
     FM050900 06007KT 4SM -SHRA VCTS BKN025 OVC050CB
     FM051100 06011KT 3SM -SHRA BR OVC010
     FM051800 06011KT P6SM SCT015 BKN050=



000
FTUS43 KLOT 042205 AAD
TAFGYY
TAF AMD
KGYY 042205Z 0422/0518 07012KT P6SM FEW035 SCT100 BKN150
     FM050000 07009KT P6SM BKN040
     FM050530 06008KT 4SM -SHRA VCTS SCT025 BKN050 BKN100CB PROB30
      0507/0512 3SM TSRA OVC020CB
     FM051200 06011KT 3SM -SHRA BR OVC010=



000
FTUS43 KLOT 042205 AAB
TAFRFD
TAF AMD
KRFD 042205Z 0422/0518 13006KT P6SM BKN045 BKN200
     FM050100 07009KT P6SM VCSH OVC050
     FM050400 07007KT 4SM -SHRA VCTS OVC025CB
     FM051000 10009KT 4SM -SHRA BR OVC010=



000
FTUS43 KLOT 042205 AAC
TAFMDW
TAF AMD
KMDW 042205Z 0422/0518 07010KT P6SM FEW035 SCT100 BKN150
     FM050500 06008KT 6SM -SHRA VCTS SCT030 BKN050 BKN100CB
     FM050900 06007KT 4SM -SHRA VCTS BKN025 OVC050CB
     FM051100 06011KT 3SM -SHRA BR OVC010=



000
FTUS43 KLOT 042005 AAC
TAFGYY
TAF AMD
KGYY 042005Z 0420/0518 06011KT P6SM BKN035
     FM050000 07009KT P6SM BKN040
     FM050530 06008KT 4SM -SHRA VCTS SCT025 BKN050 BKN100CB PROB30
      0506/0511 3SM TSRA OVC020CB
     FM051100 06011KT 3SM -SHRA BR OVC010=



000
FTUS43 KLOT 042005 AAC
TAFGYY
TAF AMD
KGYY 042005Z 0420/0518 06011KT P6SM BKN035
     FM050000 07009KT P6SM BKN040
     FM050530 06008KT 4SM -SHRA VCTS SCT025 BKN050 BKN100CB PROB30
      0506/0511 3SM TSRA OVC020CB
     FM051100 06011KT 3SM -SHRA BR OVC010=



000
FTUS43 KLOT 041954 AAB
TAFGYY
TAF AMD
KGYY 041954Z 0420/0518 36010KT P6SM BKN030 BKN150
     FM042100 02011KT P6SM BKN035
     FM050000 07009KT P6SM VCSH BKN040
     FM050530 06008KT 4SM -SHRA VCTS SCT025 BKN050 BKN100CB PROB30
      0506/0511 3SM TSRA OVC020CB
     FM051100 06011KT 3SM -SHRA BR OVC010=



000
FTUS43 KLOT 041954 AAB
TAFGYY
TAF AMD
KGYY 041954Z 0420/0518 36010KT P6SM BKN030 BKN150
     FM042100 02011KT P6SM BKN035
     FM050000 07009KT P6SM VCSH BKN040
     FM050530 06008KT 4SM -SHRA VCTS SCT025 BKN050 BKN100CB PROB30
      0506/0511 3SM TSRA OVC020CB
     FM051100 06011KT 3SM -SHRA BR OVC010=



000
FTUS43 KLOT 041954 AAA
TAFRFD
TAF AMD
KRFD 041954Z 0420/0518 03009KT P6SM SCT035 BKN200
     FM050000 07009KT P6SM VCSH OVC050
     FM050400 07007KT 4SM -SHRA VCTS OVC025CB PROB30 0505/0509 3SM
      TSRA OVC015CB
     FM051000 10009KT 4SM -SHRA BR OVC010=



000
FTUS43 KLOT 041954 AAB
TAFMDW
TAF AMD
KMDW 041954Z 0420/0518 05011KT P6SM BKN040 BKN120
     FM042200 05008KT P6SM SCT040 BKN150
     FM050500 06008KT 6SM -SHRA VCTS SCT030 BKN050 BKN100CB
     FM050900 06007KT 4SM -SHRA VCTS BKN025 OVC050CB
     FM051100 06011KT 3SM -SHRA BR OVC010=



000
FTUS43 KLOT 041954 AAB
TAFORD
TAF AMD
KORD 041954Z 0420/0524 05010KT P6SM BKN040 BKN150
     FM042200 05008KT P6SM SCT040 BKN150
     FM050500 06007KT 6SM -SHRA VCTS SCT030 BKN050 BKN100CB
     FM050900 06007KT 4SM -SHRA VCTS BKN025 OVC050CB
     FM051100 06011KT 3SM -SHRA BR OVC010
     FM051800 06011KT P6SM SCT015 BKN050=



000
FTUS43 KLOT 041954 AAA
TAFDPA
TAF AMD
KDPA 041954Z 0420/0518 VRB05KT P6SM SCT030 BKN150
     FM042045 04010KT P6SM SCT035 BKN150
     FM050000 05008KT P6SM SCT040 BKN150
     FM050500 05007KT 4SM -SHRA VCTS SCT025 BKN050 BKN100CB PROB30
      0508/0512 3SM TSRA OVC015CB
     FM051200 06011KT 3SM -SHRA BR OVC010=



000
FTUS43 KLOT 041900 AAA
TAFMDW
TAF AMD
KMDW 041900Z 0419/0518 23005KT P6SM BKN035 OVC050
     FM041930 03010KT P6SM BKN035 BKN120
     FM042200 04010KT P6SM BKN035
     FM050000 05009KT P6SM SCT040 BKN150
     FM050600 06008KT 4SM -SHRA VCTS SCT025 BKN050 BKN100CB
     FM051100 06011KT 3SM -SHRA BR OVC010=



000
FTUS43 KLOT 041900 AAA
TAFMDW
TAF AMD
KMDW 041900Z 0419/0518 23005KT P6SM BKN035 OVC050
     FM041930 03010KT P6SM BKN035 BKN120
     FM042200 04010KT P6SM BKN035
     FM050000 05009KT P6SM SCT040 BKN150
     FM050600 06008KT 4SM -SHRA VCTS SCT025 BKN050 BKN100CB
     FM051100 06011KT 3SM -SHRA BR OVC010=



000
FTUS43 KLOT 041859 AAA
TAFORD
TAF AMD
KORD 041859Z 0419/0524 31005KT P6SM BKN035 BKN100
     FM041930 03010KT P6SM SCT020 BKN035 BKN150
     FM042100 04011KT P6SM SCT035 BKN150
     FM050000 05008KT P6SM SCT040 BKN150
     FM050600 07007KT 4SM -SHRA VCTS SCT025 BKN050 BKN100CB
     FM051100 06011KT 3SM -SHRA BR OVC010
     FM051800 06011KT P6SM SCT015 BKN050=



000
FTUS43 KLOT 041859 AAA
TAFORD
TAF AMD
KORD 041859Z 0419/0524 31005KT P6SM BKN035 BKN100
     FM041930 03010KT P6SM SCT020 BKN035 BKN150
     FM042100 04011KT P6SM SCT035 BKN150
     FM050000 05008KT P6SM SCT040 BKN150
     FM050600 07007KT 4SM -SHRA VCTS SCT025 BKN050 BKN100CB
     FM051100 06011KT 3SM -SHRA BR OVC010
     FM051800 06011KT P6SM SCT015 BKN050=



000
FTUS43 KLOT 041757 AAA
TAFGYY
TAF AMD
KGYY 041757Z 0418/0518 23009KT P6SM BKN028 BKN100
     FM041900 36010KT P6SM BKN030 BKN150
     FM042100 02011KT P6SM BKN035
     FM050000 07009KT P6SM VCSH BKN040
     FM050530 06008KT 4SM -SHRA VCTS SCT025 BKN050 BKN100CB PROB30
      0506/0511 3SM TSRA OVC010CB
     FM051100 06011KT 3SM -SHRA BR OVC010=



000
FTUS43 KLOT 041757 AAA
TAFGYY
TAF AMD
KGYY 041757Z 0418/0518 23009KT P6SM BKN028 BKN100
     FM041900 36010KT P6SM BKN030 BKN150
     FM042100 02011KT P6SM BKN035
     FM050000 07009KT P6SM VCSH BKN040
     FM050530 06008KT 4SM -SHRA VCTS SCT025 BKN050 BKN100CB PROB30
      0506/0511 3SM TSRA OVC010CB
     FM051100 06011KT 3SM -SHRA BR OVC010=



000
FTUS43 KLOT 041743
TAFGYY
TAF
KGYY 041743Z 0418/0518 27009KT P6SM SCT020 BKN100
     FM041900 36010KT P6SM SCT030 BKN150
     FM042100 02011KT P6SM BKN035
     FM050000 07009KT P6SM VCSH BKN040
     FM050530 06008KT 4SM -SHRA VCTS SCT025 BKN050 BKN100CB PROB30
      0506/0511 3SM TSRA OVC010CB
     FM051100 06011KT 3SM -SHRA BR OVC010=



000
FTUS43 KLOT 041743
TAFGYY
TAF
KGYY 041743Z 0418/0518 27009KT P6SM SCT020 BKN100
     FM041900 36010KT P6SM SCT030 BKN150
     FM042100 02011KT P6SM BKN035
     FM050000 07009KT P6SM VCSH BKN040
     FM050530 06008KT 4SM -SHRA VCTS SCT025 BKN050 BKN100CB PROB30
      0506/0511 3SM TSRA OVC010CB
     FM051100 06011KT 3SM -SHRA BR OVC010=



000
FTUS43 KLOT 041743
TAFDPA
TAF
KDPA 041743Z 0418/0518 30008KT P6SM BKN028 BKN100
     FM042000 02010KT P6SM SCT020 BKN035 BKN150
     FM042200 04011KT P6SM SCT035 BKN150
     FM050000 05008KT P6SM SCT040 BKN150
     FM050600 07007KT 4SM -SHRA VCTS SCT025 BKN050 BKN100CB PROB30
      0508/0512 3SM TSRA OVC010CB
     FM051200 06011KT 3SM -SHRA BR OVC010=



000
FTUS43 KLOT 041743
TAFGYY
TAF
KGYY 041743Z 0418/0518 27009KT P6SM SCT020 BKN100
     FM041900 36010KT P6SM SCT030 BKN150
     FM042100 02011KT P6SM BKN035
     FM050000 07009KT P6SM VCSH BKN040
     FM050530 06008KT 4SM -SHRA VCTS SCT025 BKN050 BKN100CB PROB30
      0506/0511 3SM TSRA OVC010CB
     FM051100 06011KT 3SM -SHRA BR OVC010=



000
FTUS43 KLOT 041743
TAFRFD
TAF
KRFD 041743Z 0418/0518 36006KT P6SM SCT009 BKN015 OVC120
     FM041900 03009KT P6SM SCT035 BKN200
     FM050000 07009KT P6SM VCSH OVC050
     FM050400 07007KT 4SM -SHRA VCTS OVC025CB PROB30 0505/0509 3SM
      TSRA OVC015CB
     FM051000 10009KT 4SM -SHRA BR OVC010=



000
FTUS43 KLOT 041743
TAFMDW
TAF
KMDW 041743Z 0418/0518 30008KT P6SM BKN035 BKN100
     FM042000 01010KT P6SM BKN035 BKN120
     FM042200 04010KT P6SM BKN035
     FM050000 05009KT P6SM SCT040 BKN150
     FM050600 06008KT 4SM -SHRA VCTS SCT025 BKN050 BKN100CB
     FM051100 06011KT 3SM -SHRA BR OVC010=



000
FTUS43 KLOT 041743
TAFORD
TAF
KORD 041743Z 0418/0524 31008KT P6SM BKN028 BKN100
     FM042000 02010KT P6SM SCT020 BKN035 BKN150
     FM042200 04011KT P6SM SCT035 BKN150
     FM050000 05008KT P6SM SCT040 BKN150
     FM050600 07007KT 4SM -SHRA VCTS SCT025 BKN050 BKN100CB
     FM051100 06011KT 3SM -SHRA BR OVC010
     FM051800 06011KT P6SM SCT015 BKN050=



000
FTUS43 KLOT 041603 AAB
TAFDPA
TAF AMD
KDPA 041603Z 0416/0512 35009KT P6SM BKN018 BKN100
     FM041800 01010KT P6SM SCT015 BKN150
     FM042000 04011KT P6SM BKN035
     FM050000 07009KT P6SM VCSH BKN040
     FM050400 07010KT 4SM -SHRA VCTS OVC020CB PROB30 0506/0510 3SM
      TSRA OVC010CB=



000
FTUS43 KLOT 041603 AAB
TAFMDW
TAF AMD
KMDW 041603Z 0416/0512 27009KT P6SM SCT018 BKN100
     FM041930 01010KT P6SM SCT020 BKN150
     FM042130 05010KT P6SM BKN035
     FM050000 05009KT P6SM SCT040 BKN150
     FM050600 06008KT 5SM -SHRA VCTS SCT040 BKN100CB PROB30
      0508/0512 3SM TSRA OVC025CB=



000
FTUS43 KLOT 041603 AAB
TAFRFD
TAF AMD
KRFD 041603Z 0416/0512 36006KT P6SM SCT009 BKN015 OVC120
     FM041900 03009KT P6SM SCT035 BKN200
     FM050000 07009KT P6SM VCSH OVC050
     FM050300 07011KT 4SM -SHRA VCTS OVC025CB PROB30 0505/0509 3SM
      TSRA OVC015CB=



000
FTUS43 KLOT 041603 AAB
TAFORD
TAF AMD
KORD 041603Z 0416/0518 27009KT P6SM SCT020 BKN100
     FM041930 02010KT P6SM SCT020 BKN035 BKN150
     FM042100 04011KT P6SM BKN035
     FM050000 05009KT P6SM SCT040 BKN150
     FM050600 07007KT 5SM -SHRA VCTS SCT040 BKN100CB PROB30
      0508/0512 3SM TSRA OVC025CB
     FM051200 07011KT 4SM -SHRA BR OVC010=



000
FTUS43 KLOT 041603 AAB
TAFGYY
TAF AMD
KGYY 041603Z 0416/0512 27009KT P6SM SCT020 BKN100
     FM041800 36010KT P6SM SCT030 BKN150
     FM042000 02011KT P6SM BKN035
     FM050000 07009KT P6SM VCSH BKN040
     FM050500 07010KT 5SM -SHRA VCTS OVC020CB PROB30 0508/0512 3SM
      TSRA OVC010CB=



000
FTUS43 KLOT 041420 AAA
TAFDPA
TAF AMD
KDPA 041420Z 0414/0512 28008KT P6SM SCT040 OVC150
     FM041600 35009KT 6SM BR SCT008 BKN100
     FM041800 01010KT P6SM SCT015 BKN150
     FM042000 04011KT P6SM BKN035
     FM050000 07009KT P6SM VCSH BKN040
     FM050400 07010KT 4SM -SHRA VCTS OVC020CB PROB30 0506/0510 3SM
      TSRA OVC010CB=



000
FTUS43 KLOT 041420 AAA
TAFGYY
TAF AMD
KGYY 041420Z 0414/0512 24010KT P6SM FEW040 OVC120
     FM041600 27009KT 6SM BR SCT008 BKN100
     FM041800 36010KT P6SM SCT015 BKN150
     FM042000 02011KT P6SM BKN035
     FM050000 07009KT P6SM VCSH BKN040
     FM050400 07010KT 5SM -SHRA VCTS OVC020CB PROB30 0506/0510 3SM
      TSRA OVC010CB=



000
FTUS43 KLOT 041420 AAA
TAFRFD
TAF AMD
KRFD 041420Z 0414/0512 33006KT P6SM SCT009 BKN015 OVC120
     FM041600 01009KT P6SM SCT015 BKN200
     FM041900 04009KT P6SM SCT035 BKN200
     FM050000 07009KT P6SM VCSH OVC050
     FM050300 07011KT 4SM -SHRA VCTS OVC025CB PROB30 0505/0509 3SM
      TSRA OVC015CB=



000
FTUS43 KLOT 041420 AAA
TAFGYY
TAF AMD
KGYY 041420Z 0414/0512 24010KT P6SM FEW040 OVC120
     FM041600 27009KT 6SM BR SCT008 BKN100
     FM041800 36010KT P6SM SCT015 BKN150
     FM042000 02011KT P6SM BKN035
     FM050000 07009KT P6SM VCSH BKN040
     FM050400 07010KT 5SM -SHRA VCTS OVC020CB PROB30 0506/0510 3SM
      TSRA OVC010CB=



000
FTUS43 KLOT 041420 AAA
TAFORD
TAF AMD
KORD 041420Z 0414/0518 28008KT P6SM SCT040 OVC150
     FM041600 35009KT 6SM BR SCT008 BKN100
     FM041800 01010KT P6SM SCT015 BKN150
     FM042000 04011KT P6SM BKN035
     FM050000 07009KT P6SM VCSH BKN040
     FM050400 07010KT 4SM -SHRA VCTS OVC020CB PROB30 0506/0510 3SM
      TSRA OVC010CB
     FM051200 07011KT 6SM -SHRA BR OVC010=



000
FTUS43 KLOT 041420 AAA
TAFMDW
TAF AMD
KMDW 041420Z 0414/0512 25006KT P6SM FEW040 OVC120
     FM041600 34009KT 6SM BR SCT008 BKN100
     FM041800 01010KT P6SM SCT015 BKN150
     FM042000 05011KT P6SM BKN035
     FM050000 07009KT P6SM VCSH BKN040
     FM050400 07010KT 5SM -SHRA VCTS OVC020CB PROB30 0506/0510 3SM
      TSRA OVC010CB=



000
FTUS43 KLOT 041135
TAFMDW
TAF
KMDW 041135Z 0412/0512 23006KT 6SM BR VCSH FEW020 OVC080
      TEMPO 0412/0414 -RA
     FM041500 34009KT 6SM BR SCT015 BKN100
     FM041630 01010KT 6SM BR BKN015 BKN150
     FM041900 05011KT P6SM BKN035
     FM050000 07009KT P6SM VCSH BKN040
     FM050400 07010KT 5SM -SHRA VCTS OVC020CB PROB30 0506/0510 3SM
      TSRA OVC010CB=



000
FTUS43 KLOT 041135
TAFRFD
TAF
KRFD 041135Z 0412/0512 25006KT 6SM BR VCSH SCT015 OVC120
     FM041300 33007KT 5SM BR BKN010 OVC120
     FM041600 01009KT P6SM SCT025 BKN200
     FM041900 04009KT P6SM SCT035 BKN200
     FM050000 07009KT P6SM VCSH OVC050
     FM050300 07011KT 4SM -SHRA VCTS OVC025CB PROB30 0505/0509 3SM
      TSRA OVC015CB=



000
FTUS43 KLOT 041135
TAFORD
TAF
KORD 041135Z 0412/0518 23006KT 6SM BR VCSH FEW020 OVC100
     FM041430 34009KT 6SM BR SCT015 BKN100
     FM041600 01010KT 6SM BR BKN015 BKN150
     FM041900 04011KT P6SM BKN035
     FM050000 07009KT P6SM VCSH BKN040
     FM050400 07010KT 4SM -SHRA VCTS OVC020CB PROB30 0506/0510 3SM
      TSRA OVC010CB
     FM051200 07011KT 6SM -SHRA BR OVC010=



000
FTUS43 KLOT 041135
TAFGYY
TAF
KGYY 041135Z 0412/0512 22008KT 6SM BR VCSH FEW020 OVC080
      TEMPO 0412/0415 -RA
     FM041500 34010KT 6SM BR SCT015 BKN090
     FM041700 01010KT 6SM BR BKN015 BKN120
     FM041900 03011KT P6SM BKN035
     FM050000 04009KT P6SM VCSH BKN040
     FM050400 06010KT 5SM -SHRA VCTS OVC020CB PROB30 0506/0510 3SM
      TSRA OVC010CB=



000
FTUS43 KLOT 041135
TAFDPA
TAF
KDPA 041135Z 0412/0512 23006KT 6SM BR VCSH FEW020 OVC100
     FM041400 34008KT 6SM BR SCT012 BKN100
     FM041600 36009KT 6SM BR BKN012 BKN120
     FM041900 04010KT P6SM BKN035
     FM050000 07009KT P6SM VCSH BKN040
     FM050400 07010KT 4SM -SHRA VCTS OVC020CB PROB30 0506/0510 3SM
      TSRA OVC010CB=



000
FTUS43 KLOT 041135
TAFGYY
TAF
KGYY 041135Z 0412/0512 22008KT 6SM BR VCSH FEW020 OVC080
      TEMPO 0412/0415 -RA
     FM041500 34010KT 6SM BR SCT015 BKN090
     FM041700 01010KT 6SM BR BKN015 BKN120
     FM041900 03011KT P6SM BKN035
     FM050000 04009KT P6SM VCSH BKN040
     FM050400 06010KT 5SM -SHRA VCTS OVC020CB PROB30 0506/0510 3SM
      TSRA OVC010CB=



000
FTUS43 KLOT 041135
TAFMDW
TAF
KMDW 041135Z 0412/0512 23006KT 6SM BR VCSH FEW020 OVC080
      TEMPO 0412/0414 -RA
     FM041500 34009KT 6SM BR SCT015 BKN100
     FM041630 01010KT 6SM BR BKN015 BKN150
     FM041900 05011KT P6SM BKN035
     FM050000 07009KT P6SM VCSH BKN040
     FM050400 07010KT 5SM -SHRA VCTS OVC020CB PROB30 0506/0510 3SM
      TSRA OVC010CB=



000
FTUS43 KLOT 041135
TAFDPA
TAF
KDPA 041135Z 0412/0512 23006KT 6SM BR VCSH FEW020 OVC100
     FM041400 34008KT 6SM BR SCT012 BKN100
     FM041600 36009KT 6SM BR BKN012 BKN120
     FM041900 04010KT P6SM BKN035
     FM050000 07009KT P6SM VCSH BKN040
     FM050400 07010KT 4SM -SHRA VCTS OVC020CB PROB30 0506/0510 3SM
      TSRA OVC010CB=



000
FTUS43 KLOT 041135
TAFRFD
TAF
KRFD 041135Z 0412/0512 25006KT 6SM BR VCSH SCT015 OVC120
     FM041300 33007KT 5SM BR BKN010 OVC120
     FM041600 01009KT P6SM SCT025 BKN200
     FM041900 04009KT P6SM SCT035 BKN200
     FM050000 07009KT P6SM VCSH OVC050
     FM050300 07011KT 4SM -SHRA VCTS OVC025CB PROB30 0505/0509 3SM
      TSRA OVC015CB=



000
FTUS43 KLOT 041135
TAFORD
TAF
KORD 041135Z 0412/0518 23006KT 6SM BR VCSH FEW020 OVC100
     FM041430 34009KT 6SM BR SCT015 BKN100
     FM041600 01010KT 6SM BR BKN015 BKN150
     FM041900 04011KT P6SM BKN035
     FM050000 07009KT P6SM VCSH BKN040
     FM050400 07010KT 4SM -SHRA VCTS OVC020CB PROB30 0506/0510 3SM
      TSRA OVC010CB
     FM051200 07011KT 6SM -SHRA BR OVC010=



000
FTUS43 KLOT 041135
TAFGYY
TAF
KGYY 041135Z 0412/0512 22008KT 6SM BR VCSH FEW020 OVC080
      TEMPO 0412/0415 -RA
     FM041500 34010KT 6SM BR SCT015 BKN090
     FM041700 01010KT 6SM BR BKN015 BKN120
     FM041900 03011KT P6SM BKN035
     FM050000 04009KT P6SM VCSH BKN040
     FM050400 06010KT 5SM -SHRA VCTS OVC020CB PROB30 0506/0510 3SM
      TSRA OVC010CB=



000
FTUS43 KLOT 041135
TAFGYY
TAF
KGYY 041135Z 0412/0512 22008KT 6SM BR VCSH FEW020 OVC080
      TEMPO 0412/0415 -RA
     FM041500 34010KT 6SM BR SCT015 BKN090
     FM041700 01010KT 6SM BR BKN015 BKN120
     FM041900 03011KT P6SM BKN035
     FM050000 04009KT P6SM VCSH BKN040
     FM050400 06010KT 5SM -SHRA VCTS OVC020CB PROB30 0506/0510 3SM
      TSRA OVC010CB=



000
FTUS43 KLOT 040854 AAB
TAFGYY
TAF AMD
KGYY 040854Z 0409/0506 26011KT P6SM VCSH OVC080
     FM041100 17006KT 6SM -SHRA BR FEW020 OVC080
     FM041500 29007KT 6SM BR SCT020 OVC070
     FM041700 01012KT 6SM BR OVC015
     FM042200 04011KT P6SM BKN025
     FM050000 04009KT P6SM VCSH BKN040
     FM050300 07009KT 4SM -SHRA VCTS OVC025CB=



000
FTUS43 KLOT 040854 AAB
TAFMDW
TAF AMD
KMDW 040854Z 0409/0506 27011KT P6SM VCSH OVC090
     FM041030 17006KT 6SM -SHRA BR FEW020 OVC080
     FM041400 29007KT 6SM BR SCT020 OVC070
     FM041600 02012KT 6SM BR OVC015
     FM042100 04011KT P6SM BKN030
     FM050000 04009KT P6SM VCSH BKN040
     FM050300 07009KT 4SM -SHRA VCTS OVC025CB=



000
FTUS43 KLOT 040854 AAB
TAFGYY
TAF AMD
KGYY 040854Z 0409/0506 26011KT P6SM VCSH OVC080
     FM041100 17006KT 6SM -SHRA BR FEW020 OVC080
     FM041500 29007KT 6SM BR SCT020 OVC070
     FM041700 01012KT 6SM BR OVC015
     FM042200 04011KT P6SM BKN025
     FM050000 04009KT P6SM VCSH BKN040
     FM050300 07009KT 4SM -SHRA VCTS OVC025CB=



000
FTUS43 KLOT 040854 AAB
TAFGYY
TAF AMD
KGYY 040854Z 0409/0506 26011KT P6SM VCSH OVC080
     FM041100 17006KT 6SM -SHRA BR FEW020 OVC080
     FM041500 29007KT 6SM BR SCT020 OVC070
     FM041700 01012KT 6SM BR OVC015
     FM042200 04011KT P6SM BKN025
     FM050000 04009KT P6SM VCSH BKN040
     FM050300 07009KT 4SM -SHRA VCTS OVC025CB=



000
FTUS43 KLOT 040854 AAB
TAFMDW
TAF AMD
KMDW 040854Z 0409/0506 27011KT P6SM VCSH OVC090
     FM041030 17006KT 6SM -SHRA BR FEW020 OVC080
     FM041400 29007KT 6SM BR SCT020 OVC070
     FM041600 02012KT 6SM BR OVC015
     FM042100 04011KT P6SM BKN030
     FM050000 04009KT P6SM VCSH BKN040
     FM050300 07009KT 4SM -SHRA VCTS OVC025CB=



000
FTUS43 KLOT 040854 AAB
TAFGYY
TAF AMD
KGYY 040854Z 0409/0506 26011KT P6SM VCSH OVC080
     FM041100 17006KT 6SM -SHRA BR FEW020 OVC080
     FM041500 29007KT 6SM BR SCT020 OVC070
     FM041700 01012KT 6SM BR OVC015
     FM042200 04011KT P6SM BKN025
     FM050000 04009KT P6SM VCSH BKN040
     FM050300 07009KT 4SM -SHRA VCTS OVC025CB=



000
FTUS43 KLOT 040849 AAB
TAFORD
TAF AMD
KORD 040849Z 0409/0512 27011KT P6SM VCSH OVC090
     FM041000 VRB06KT 6SM -SHRA BR FEW020 OVC080
     FM041300 29007KT 6SM BR SCT020 OVC070
     FM041500 34010KT 6SM BR SCT015 BKN070
     FM041600 02012KT 6SM BR OVC015
     FM042100 04011KT P6SM BKN030
     FM050000 04009KT P6SM VCSH BKN040
     FM050300 07009KT 4SM -SHRA VCTS OVC025CB=



000
FTUS43 KLOT 040849 AAB
TAFORD
TAF AMD
KORD 040849Z 0409/0512 27011KT P6SM VCSH OVC090
     FM041000 VRB06KT 6SM -SHRA BR FEW020 OVC080
     FM041300 29007KT 6SM BR SCT020 OVC070
     FM041500 34010KT 6SM BR SCT015 BKN070
     FM041600 02012KT 6SM BR OVC015
     FM042100 04011KT P6SM BKN030
     FM050000 04009KT P6SM VCSH BKN040
     FM050300 07009KT 4SM -SHRA VCTS OVC025CB=



000
FTUS43 KLOT 040842 AAB
TAFDPA
TAF AMD
KDPA 040842Z 0409/0506 VRB07KT 6SM -SHRA BR FEW020 OVC070
     FM041430 34009KT 6SM BR SCT015 BKN070
     FM041600 02011KT 6SM BR OVC015
     FM042100 03011KT P6SM BKN025
     FM050000 04009KT P6SM VCSH BKN040
     FM050300 07009KT 4SM -SHRA VCTS OVC030CB=



000
FTUS43 KLOT 040835 AAB
TAFRFD
TAF AMD
KRFD 040835Z 0409/0506 18007KT 6SM BR VCSH FEW020 OVC070
      TEMPO 0409/0411 6SM -RA
     FM041200 21006KT 5SM BR SCT015 BKN070
     FM041400 34007KT 6SM BR OVC015
     FM041600 03011KT P6SM OVC015
     FM041900 04010KT P6SM BKN035
     FM050000 07009KT P6SM VCSH OVC050
     FM050200 07009KT 4SM -SHRA VCTS OVC030CB=



000
FTUS43 KLOT 040757 AAA
TAFGYY
TAF AMD
KGYY 040757Z 0408/0506 17010G16KT P6SM SCT040 OVC090
     FM040900 31011G18KT 5SM -SHRA VCTS OVC040CB
     FM041300 31010KT 5SM BR VCSH SCT020 OVC035
     FM041600 32007KT 6SM BR VCSH OVC015
     FM041800 36011KT P6SM VCSH OVC015
     FM042100 02010KT P6SM BKN025
     FM050100 03009KT P6SM BKN040=



000
FTUS43 KLOT 040755 AAA
TAFMDW
TAF AMD
KMDW 040755Z 0408/0506 31013G21KT P6SM -SHRA VCTS SCT040 OVC090CB
     FM041000 31010KT P6SM -SHRA VCTS OVC040CB
     FM041200 30007KT 5SM -SHRA SCT020 OVC035
     FM041500 32007KT 6SM BR VCSH OVC015
     FM041700 03011KT P6SM VCSH OVC015
     FM042100 03010KT P6SM BKN025
     FM050000 04009KT P6SM BKN040=



000
FTUS43 KLOT 040755 AAA
TAFMDW
TAF AMD
KMDW 040755Z 0408/0506 31013G21KT P6SM -SHRA VCTS SCT040 OVC090CB
     FM041000 31010KT P6SM -SHRA VCTS OVC040CB
     FM041200 30007KT 5SM -SHRA SCT020 OVC035
     FM041500 32007KT 6SM BR VCSH OVC015
     FM041700 03011KT P6SM VCSH OVC015
     FM042100 03010KT P6SM BKN025
     FM050000 04009KT P6SM BKN040=



    US Dept of Commerce
    National Oceanic and Atmospheric Administration
    National Weather Service
    1325 East West Highway
    Silver Spring, MD 20910
    Page Author: NWS Internet Services Team
Disclaimer
Information Quality
Credits
Glossary
Privacy Policy
Freedom of Information Act (FOIA)
About Us
Career Opportunities